<?xml version='1.0' encoding='UTF-8'?><gpx version="1.1" creator="JPX - https://github.com/jenetics/jpx" xmlns="http://www.topografix.com/GPX/1/1"><trk><trkseg><trkpt lat="40.18676895911125" lon="18.02913022524663"><ele>35.0</ele><time>2026-04-21T17:03:27.997Z</time></trkpt><trkpt lat="40.186724305127925" lon="18.028995273201268"><ele>35.0</ele><time>2026-04-21T17:03:30.997Z</time></trkpt><trkpt lat="40.18666460687577" lon="18.028947602615055"><ele>35.0</ele><time>2026-04-21T17:03:32.997Z</time></trkpt><trkpt lat="40.186588369931165" lon="18.028888183076045"><ele>35.0</ele><time>2026-04-21T17:03:34.997Z</time></trkpt><trkpt lat="40.18649230949499" lon="18.028796684054694"><ele>35.0</ele><time>2026-04-21T17:03:36.997Z</time></trkpt><trkpt lat="40.18642351321839" lon="18.02875314499378"><ele>35.166666666666664</ele><time>2026-04-21T17:03:38.997Z</time></trkpt><trkpt lat="40.18637003299603" lon="18.02870227242198"><ele>35.33333333333333</ele><time>2026-04-21T17:03:42.997Z</time></trkpt><trkpt lat="40.186410775581464" lon="18.028568879733797"><ele>35.5</ele><time>2026-04-21T17:03:45.999Z</time></trkpt><trkpt lat="40.186461330480505" lon="18.028460399487017"><ele>35.666666666666664</ele><time>2026-04-21T17:03:47.999Z</time></trkpt><trkpt lat="40.18649860100918" lon="18.028370958317563"><ele>35.833333333333336</ele><time>2026-04-21T17:03:49.999Z</time></trkpt><trkpt lat="40.186533402930664" lon="18.0282833782416"><ele>36.0</ele><time>2026-04-21T17:03:52.999Z</time></trkpt><trkpt lat="40.18657147353114" lon="18.02820937830384"><ele>35.5</ele><time>2026-04-21T17:03:55.999Z</time></trkpt><trkpt lat="40.186584760566525" lon="18.02812593575946"><ele>35.0</ele><time>2026-04-21T17:04:00.999Z</time></trkpt><trkpt lat="40.18655574182961" lon="18.028024687659723"><ele>34.5</ele><time>2026-04-21T17:04:17.998Z</time></trkpt><trkpt lat="40.18654565549545" lon="18.02794117470526"><ele>34.0</ele><time>2026-04-21T17:04:19.998Z</time></trkpt><trkpt lat="40.186411648711" lon="18.027952619838008"><ele>33.5</ele><time>2026-04-21T17:04:20.998Z</time></trkpt><trkpt lat="40.186346338361076" lon="18.02795096856724"><ele>33.0</ele><time>2026-04-21T17:04:21.998Z</time></trkpt><trkpt lat="40.18628256490033" lon="18.027947727416066"><ele>33.0</ele><time>2026-04-21T17:04:22.998Z</time></trkpt><trkpt lat="40.1862153614632" lon="18.027937320740513"><ele>33.0</ele><time>2026-04-21T17:04:23.998Z</time></trkpt><trkpt lat="40.18614141616122" lon="18.02792366890231"><ele>33.0</ele><time>2026-04-21T17:04:24.998Z</time></trkpt><trkpt lat="40.186063782901414" lon="18.02790772022108"><ele>33.0</ele><time>2026-04-21T17:04:25.998Z</time></trkpt><trkpt lat="40.185983401274136" lon="18.02789321640706"><ele>33.0</ele><time>2026-04-21T17:04:26.998Z</time></trkpt><trkpt lat="40.18590409172498" lon="18.027876511393433"><ele>33.0</ele><time>2026-04-21T17:04:27.998Z</time></trkpt><trkpt lat="40.18582477776719" lon="18.027864224960396"><ele>33.0</ele><time>2026-04-21T17:04:28.998Z</time></trkpt><trkpt lat="40.18574707540898" lon="18.027846072057294"><ele>33.0</ele><time>2026-04-21T17:04:29.998Z</time></trkpt><trkpt lat="40.18566734028245" lon="18.027824979148125"><ele>33.0</ele><time>2026-04-21T17:04:30.998Z</time></trkpt><trkpt lat="40.18558710423005" lon="18.02780233707722"><ele>33.0</ele><time>2026-04-21T17:04:31.998Z</time></trkpt><trkpt lat="40.18550326191551" lon="18.027770458377468"><ele>33.0</ele><time>2026-04-21T17:04:32.998Z</time></trkpt><trkpt lat="40.18541631979116" lon="18.027738751040435"><ele>33.0</ele><time>2026-04-21T17:04:33.998Z</time></trkpt><trkpt lat="40.185337480808734" lon="18.027702458239954"><ele>33.4</ele><time>2026-04-21T17:04:34.998Z</time></trkpt><trkpt lat="40.18524457131988" lon="18.027670109708282"><ele>33.8</ele><time>2026-04-21T17:04:35.998Z</time></trkpt><trkpt lat="40.18514679483388" lon="18.027644790229093"><ele>34.2</ele><time>2026-04-21T17:04:36.998Z</time></trkpt><trkpt lat="40.185048966157666" lon="18.027626014917892"><ele>34.6</ele><time>2026-04-21T17:04:37.998Z</time></trkpt><trkpt lat="40.18495775182308" lon="18.0275888156045"><ele>35.0</ele><time>2026-04-21T17:04:38.998Z</time></trkpt><trkpt lat="40.18486786375971" lon="18.02755242109237"><ele>35.166666666666664</ele><time>2026-04-21T17:04:39.998Z</time></trkpt><trkpt lat="40.184777229212486" lon="18.027520864771628"><ele>35.33333333333333</ele><time>2026-04-21T17:04:40.998Z</time></trkpt><trkpt lat="40.18468727710557" lon="18.027490679854704"><ele>35.5</ele><time>2026-04-21T17:04:41.998Z</time></trkpt><trkpt lat="40.18459799474443" lon="18.027465029884013"><ele>35.666666666666664</ele><time>2026-04-21T17:04:42.998Z</time></trkpt><trkpt lat="40.18452547932761" lon="18.027435680387075"><ele>35.833333333333336</ele><time>2026-04-21T17:04:43.998Z</time></trkpt><trkpt lat="40.18445130017588" lon="18.027421409731602"><ele>36.0</ele><time>2026-04-21T17:04:44.998Z</time></trkpt><trkpt lat="40.18431909097466" lon="18.027367951762766"><ele>36.166666666666664</ele><time>2026-04-21T17:04:46.998Z</time></trkpt><trkpt lat="40.18425041323625" lon="18.027353770124115"><ele>36.333333333333336</ele><time>2026-04-21T17:04:47.998Z</time></trkpt><trkpt lat="40.18416635888597" lon="18.027324827294574"><ele>36.5</ele><time>2026-04-21T17:04:48.998Z</time></trkpt><trkpt lat="40.18407790333094" lon="18.027300846168743"><ele>36.66666666666667</ele><time>2026-04-21T17:04:49.998Z</time></trkpt><trkpt lat="40.183986774043376" lon="18.02727516675007"><ele>36.833333333333336</ele><time>2026-04-21T17:04:50.998Z</time></trkpt><trkpt lat="40.183897042468814" lon="18.02724233280741"><ele>37.0</ele><time>2026-04-21T17:04:51.998Z</time></trkpt><trkpt lat="40.183815145484566" lon="18.027215082272768"><ele>37.0</ele><time>2026-04-21T17:04:52.998Z</time></trkpt><trkpt lat="40.1837430506857" lon="18.027203270795326"><ele>37.0</ele><time>2026-04-21T17:04:53.998Z</time></trkpt><trkpt lat="40.18366795292012" lon="18.02718460874147"><ele>37.0</ele><time>2026-04-21T17:04:54.998Z</time></trkpt><trkpt lat="40.183600842682615" lon="18.027168624193997"><ele>37.0</ele><time>2026-04-21T17:04:55.998Z</time></trkpt><trkpt lat="40.18353513037326" lon="18.027150704563333"><ele>37.0</ele><time>2026-04-21T17:04:56.998Z</time></trkpt><trkpt lat="40.18346908544981" lon="18.027140801167896"><ele>37.0</ele><time>2026-04-21T17:04:57.998Z</time></trkpt><trkpt lat="40.18341266114348" lon="18.027097617336594"><ele>37.0</ele><time>2026-04-21T17:04:58.998Z</time></trkpt><trkpt lat="40.18334620708171" lon="18.027067422130262"><ele>37.0</ele><time>2026-04-21T17:04:59.998Z</time></trkpt><trkpt lat="40.18327967263125" lon="18.027032397826666"><ele>37.0</ele><time>2026-04-21T17:05:00.998Z</time></trkpt><trkpt lat="40.18319689072731" lon="18.026995690649976"><ele>37.0</ele><time>2026-04-21T17:05:01.998Z</time></trkpt><trkpt lat="40.1831197462715" lon="18.026943582846425"><ele>37.0</ele><time>2026-04-21T17:05:02.998Z</time></trkpt><trkpt lat="40.1830447402613" lon="18.026895958677752"><ele>37.0</ele><time>2026-04-21T17:05:03.998Z</time></trkpt><trkpt lat="40.18296981617312" lon="18.026850948336175"><ele>37.0</ele><time>2026-04-21T17:05:04.998Z</time></trkpt><trkpt lat="40.18291721816061" lon="18.026775900737206"><ele>37.16666666666667</ele><time>2026-04-21T17:05:05.998Z</time></trkpt><trkpt lat="40.1828458732697" lon="18.026732216343675"><ele>37.333333333333336</ele><time>2026-04-21T17:05:06.998Z</time></trkpt><trkpt lat="40.18276931853016" lon="18.026690045549273"><ele>37.5</ele><time>2026-04-21T17:05:07.998Z</time></trkpt><trkpt lat="40.18269383966089" lon="18.026637236271355"><ele>37.666666666666664</ele><time>2026-04-21T17:05:08.998Z</time></trkpt><trkpt lat="40.18262196741456" lon="18.02659276020396"><ele>37.83333333333333</ele><time>2026-04-21T17:05:09.998Z</time></trkpt><trkpt lat="40.18254582336563" lon="18.026553295836894"><ele>38.0</ele><time>2026-04-21T17:05:10.998Z</time></trkpt><trkpt lat="40.18246357948924" lon="18.026521254193725"><ele>38.0</ele><time>2026-04-21T17:05:11.998Z</time></trkpt><trkpt lat="40.18239155037381" lon="18.026491368463184"><ele>38.0</ele><time>2026-04-21T17:05:12.998Z</time></trkpt><trkpt lat="40.18231803257096" lon="18.026473499128365"><ele>38.0</ele><time>2026-04-21T17:05:13.998Z</time></trkpt><trkpt lat="40.182249923324015" lon="18.026453210958895"><ele>38.0</ele><time>2026-04-21T17:05:14.998Z</time></trkpt><trkpt lat="40.18213549223152" lon="18.026425717050767"><ele>38.0</ele><time>2026-04-21T17:05:16.998Z</time></trkpt><trkpt lat="40.182061467932066" lon="18.026403953626513"><ele>38.0</ele><time>2026-04-21T17:05:18.998Z</time></trkpt><trkpt lat="40.182000799737914" lon="18.02637580857739"><ele>38.8</ele><time>2026-04-21T17:05:37.997Z</time></trkpt><trkpt lat="40.18191693570631" lon="18.026350737854575"><ele>39.599999999999994</ele><time>2026-04-21T17:05:40.997Z</time></trkpt><trkpt lat="40.18185283336136" lon="18.026331574790355"><ele>40.400000000000006</ele><time>2026-04-21T17:05:41.997Z</time></trkpt><trkpt lat="40.18171892046146" lon="18.026291059586974"><ele>41.2</ele><time>2026-04-21T17:05:43.997Z</time></trkpt><trkpt lat="40.18163388320312" lon="18.02626378484628"><ele>42.0</ele><time>2026-04-21T17:05:44.997Z</time></trkpt><trkpt lat="40.181550275276074" lon="18.0262363058283"><ele>41.833333333333336</ele><time>2026-04-21T17:05:45.997Z</time></trkpt><trkpt lat="40.18146600074737" lon="18.02620860772671"><ele>41.666666666666664</ele><time>2026-04-21T17:05:46.997Z</time></trkpt><trkpt lat="40.18137907447311" lon="18.026180151203043"><ele>41.5</ele><time>2026-04-21T17:05:47.997Z</time></trkpt><trkpt lat="40.18129914425048" lon="18.026153986308852"><ele>41.33333333333333</ele><time>2026-04-21T17:05:48.997Z</time></trkpt><trkpt lat="40.18121910491079" lon="18.026127785696044"><ele>41.166666666666664</ele><time>2026-04-21T17:05:49.997Z</time></trkpt><trkpt lat="40.18114471980858" lon="18.02610343599015"><ele>41.0</ele><time>2026-04-21T17:05:50.997Z</time></trkpt><trkpt lat="40.181078493949755" lon="18.026082471480954"><ele>41.0</ele><time>2026-04-21T17:05:51.999Z</time></trkpt><trkpt lat="40.180980682915354" lon="18.026051219313857"><ele>41.0</ele><time>2026-04-21T17:05:53.999Z</time></trkpt><trkpt lat="40.18089542564134" lon="18.026023978270025"><ele>41.0</ele><time>2026-04-21T17:05:55.999Z</time></trkpt><trkpt lat="40.180818027683536" lon="18.025999248435085"><ele>41.0</ele><time>2026-04-21T17:05:57.999Z</time></trkpt><trkpt lat="40.180716642741025" lon="18.025964942609143"><ele>41.0</ele><time>2026-04-21T17:05:59.999Z</time></trkpt><trkpt lat="40.18062605679939" lon="18.025935039479414"><ele>40.5</ele><time>2026-04-21T17:06:01.999Z</time></trkpt><trkpt lat="40.18055479291073" lon="18.02591817723484"><ele>40.0</ele><time>2026-04-21T17:06:03.998Z</time></trkpt><trkpt lat="40.180478999688304" lon="18.025901375666116"><ele>39.5</ele><time>2026-04-21T17:06:05.998Z</time></trkpt><trkpt lat="40.180402715760856" lon="18.025878727033184"><ele>39.0</ele><time>2026-04-21T17:06:07.998Z</time></trkpt><trkpt lat="40.180340275643495" lon="18.025841305631634"><ele>38.5</ele><time>2026-04-21T17:06:09.998Z</time></trkpt><trkpt lat="40.18026279476436" lon="18.025815466441887"><ele>38.0</ele><time>2026-04-21T17:06:11.998Z</time></trkpt><trkpt lat="40.18018391125268" lon="18.02579028904104"><ele>38.0</ele><time>2026-04-21T17:06:13.998Z</time></trkpt><trkpt lat="40.18010152287105" lon="18.025771404785928"><ele>38.0</ele><time>2026-04-21T17:06:15.998Z</time></trkpt><trkpt lat="40.180001719453905" lon="18.02578280635098"><ele>38.0</ele><time>2026-04-21T17:06:17.998Z</time></trkpt><trkpt lat="40.17992328855137" lon="18.025822604883523"><ele>38.0</ele><time>2026-04-21T17:06:19.998Z</time></trkpt><trkpt lat="40.179880109423806" lon="18.025920344290295"><ele>38.0</ele><time>2026-04-21T17:06:22.998Z</time></trkpt><trkpt lat="40.17982944649716" lon="18.025979880026686"><ele>38.0</ele><time>2026-04-21T17:06:24.998Z</time></trkpt><trkpt lat="40.17975528757446" lon="18.026050149836482"><ele>38.4</ele><time>2026-04-21T17:06:26.998Z</time></trkpt><trkpt lat="40.17968899620803" lon="18.02604442236308"><ele>38.8</ele><time>2026-04-21T17:06:28.998Z</time></trkpt><trkpt lat="40.179634259709566" lon="18.025969776154255"><ele>39.2</ele><time>2026-04-21T17:06:30.998Z</time></trkpt><trkpt lat="40.179552230331076" lon="18.02586896442328"><ele>39.6</ele><time>2026-04-21T17:06:32.998Z</time></trkpt><trkpt lat="40.17945721928525" lon="18.025756857790352"><ele>40.0</ele><time>2026-04-21T17:06:34.998Z</time></trkpt><trkpt lat="40.17940715262009" lon="18.025692835291856"><ele>40.0</ele><time>2026-04-21T17:06:35.998Z</time></trkpt><trkpt lat="40.17936129950846" lon="18.025615033231592"><ele>40.0</ele><time>2026-04-21T17:06:36.998Z</time></trkpt><trkpt lat="40.1793113795001" lon="18.025548268154733"><ele>40.0</ele><time>2026-04-21T17:06:37.998Z</time></trkpt><trkpt lat="40.17925438169656" lon="18.025493986450215"><ele>40.0</ele><time>2026-04-21T17:06:38.998Z</time></trkpt><trkpt lat="40.17915989119583" lon="18.025391548564826"><ele>40.0</ele><time>2026-04-21T17:06:40.998Z</time></trkpt><trkpt lat="40.17907766308193" lon="18.02529902287716"><ele>40.0</ele><time>2026-04-21T17:06:42.998Z</time></trkpt><trkpt lat="40.17900727031172" lon="18.02522450402951"><ele>40.0</ele><time>2026-04-21T17:06:44.998Z</time></trkpt><trkpt lat="40.178940504890754" lon="18.02513612606151"><ele>40.0</ele><time>2026-04-21T17:06:46.998Z</time></trkpt><trkpt lat="40.17887519233575" lon="18.02504950878717"><ele>40.0</ele><time>2026-04-21T17:06:48.998Z</time></trkpt><trkpt lat="40.178820992039" lon="18.024979278196746"><ele>40.0</ele><time>2026-04-21T17:06:50.998Z</time></trkpt><trkpt lat="40.1787596138561" lon="18.02489597390431"><ele>40.0</ele><time>2026-04-21T17:06:52.998Z</time></trkpt><trkpt lat="40.17869439793436" lon="18.02480400717308"><ele>40.0</ele><time>2026-04-21T17:06:54.998Z</time></trkpt><trkpt lat="40.17863599327455" lon="18.024723199912724"><ele>39.66666666666667</ele><time>2026-04-21T17:06:56.998Z</time></trkpt><trkpt lat="40.17859939973319" lon="18.024655710330244"><ele>39.333333333333336</ele><time>2026-04-21T17:06:58.998Z</time></trkpt><trkpt lat="40.178541586102206" lon="18.02459088386208"><ele>39.0</ele><time>2026-04-21T17:07:00.998Z</time></trkpt><trkpt lat="40.178489139307935" lon="18.024480323561278"><ele>38.666666666666664</ele><time>2026-04-21T17:07:02.998Z</time></trkpt><trkpt lat="40.178400669624665" lon="18.024359555183764"><ele>38.33333333333333</ele><time>2026-04-21T17:07:04.998Z</time></trkpt><trkpt lat="40.17834009048563" lon="18.02428692983073"><ele>38.0</ele><time>2026-04-21T17:07:05.998Z</time></trkpt><trkpt lat="40.178281589097324" lon="18.024202364730545"><ele>38.166666666666664</ele><time>2026-04-21T17:07:06.998Z</time></trkpt><trkpt lat="40.178229511389446" lon="18.02412402990161"><ele>38.33333333333333</ele><time>2026-04-21T17:07:07.998Z</time></trkpt><trkpt lat="40.178179877747574" lon="18.02405829349982"><ele>38.5</ele><time>2026-04-21T17:07:08.998Z</time></trkpt><trkpt lat="40.17813255130597" lon="18.024000853834195"><ele>38.666666666666664</ele><time>2026-04-21T17:07:09.998Z</time></trkpt><trkpt lat="40.178065753276954" lon="18.023908791847425"><ele>38.833333333333336</ele><time>2026-04-21T17:07:11.998Z</time></trkpt><trkpt lat="40.17800827285197" lon="18.023834167317613"><ele>39.0</ele><time>2026-04-21T17:07:14.998Z</time></trkpt><trkpt lat="40.17793211540959" lon="18.023939415164136"><ele>39.0</ele><time>2026-04-21T17:07:16.998Z</time></trkpt><trkpt lat="40.17789872643016" lon="18.024101776546377"><ele>39.0</ele><time>2026-04-21T17:07:18.997Z</time></trkpt><trkpt lat="40.17788188521822" lon="18.024196946020837"><ele>39.0</ele><time>2026-04-21T17:07:19.997Z</time></trkpt><trkpt lat="40.17783535430037" lon="18.02428808598576"><ele>39.0</ele><time>2026-04-21T17:07:20.997Z</time></trkpt><trkpt lat="40.17780368663299" lon="18.024406757371136"><ele>39.0</ele><time>2026-04-21T17:07:21.997Z</time></trkpt><trkpt lat="40.17777848555894" lon="18.02451066928792"><ele>39.166666666666664</ele><time>2026-04-21T17:07:22.997Z</time></trkpt><trkpt lat="40.177757106725934" lon="18.024608300222745"><ele>39.333333333333336</ele><time>2026-04-21T17:07:23.997Z</time></trkpt><trkpt lat="40.17773783573205" lon="18.024696511024775"><ele>39.5</ele><time>2026-04-21T17:07:24.997Z</time></trkpt><trkpt lat="40.17769918827595" lon="18.0248303905305"><ele>39.66666666666667</ele><time>2026-04-21T17:07:26.997Z</time></trkpt><trkpt lat="40.17765781519015" lon="18.024917339463283"><ele>39.833333333333336</ele><time>2026-04-21T17:07:28.997Z</time></trkpt><trkpt lat="40.17754425112576" lon="18.024922466478746"><ele>40.0</ele><time>2026-04-21T17:07:31.997Z</time></trkpt><trkpt lat="40.17743621460608" lon="18.024867267070256"><ele>40.0</ele><time>2026-04-21T17:07:33.997Z</time></trkpt><trkpt lat="40.17737649892866" lon="18.024817438481012"><ele>40.0</ele><time>2026-04-21T17:07:34.997Z</time></trkpt><trkpt lat="40.17725942419388" lon="18.024772880896624"><ele>40.0</ele><time>2026-04-21T17:07:36.997Z</time></trkpt><trkpt lat="40.17719364349988" lon="18.02475430104934"><ele>40.0</ele><time>2026-04-21T17:07:37.997Z</time></trkpt><trkpt lat="40.177120851291384" lon="18.024723640945396"><ele>40.0</ele><time>2026-04-21T17:07:38.997Z</time></trkpt><trkpt lat="40.17705145047085" lon="18.024672443786535"><ele>40.0</ele><time>2026-04-21T17:07:39.997Z</time></trkpt><trkpt lat="40.17697081872996" lon="18.02463342337421"><ele>40.14285714285714</ele><time>2026-04-21T17:07:40.997Z</time></trkpt><trkpt lat="40.17689161881302" lon="18.02460360530025"><ele>40.285714285714285</ele><time>2026-04-21T17:07:41.997Z</time></trkpt><trkpt lat="40.17681569375446" lon="18.02457581134763"><ele>40.42857142857143</ele><time>2026-04-21T17:07:42.997Z</time></trkpt><trkpt lat="40.17674529083262" lon="18.024540927921667"><ele>40.57142857142857</ele><time>2026-04-21T17:07:43.997Z</time></trkpt><trkpt lat="40.176683667521054" lon="18.02449848936001"><ele>40.714285714285715</ele><time>2026-04-21T17:07:44.997Z</time></trkpt><trkpt lat="40.1766199405299" lon="18.02446726246179"><ele>40.857142857142854</ele><time>2026-04-21T17:07:45.997Z</time></trkpt><trkpt lat="40.176553443064705" lon="18.02443688178294"><ele>41.0</ele><time>2026-04-21T17:07:46.997Z</time></trkpt><trkpt lat="40.17648425389111" lon="18.024398933380795"><ele>40.666666666666664</ele><time>2026-04-21T17:07:47.997Z</time></trkpt><trkpt lat="40.1764161682166" lon="18.024360722097303"><ele>40.33333333333333</ele><time>2026-04-21T17:07:48.997Z</time></trkpt><trkpt lat="40.176342143068" lon="18.024333394930977"><ele>40.0</ele><time>2026-04-21T17:07:49.997Z</time></trkpt><trkpt lat="40.17627375214027" lon="18.0243059399457"><ele>39.666666666666664</ele><time>2026-04-21T17:07:50.997Z</time></trkpt><trkpt lat="40.17621435982836" lon="18.02427599275894"><ele>39.333333333333336</ele><time>2026-04-21T17:07:51.997Z</time></trkpt><trkpt lat="40.17615590390752" lon="18.024238469851603"><ele>39.0</ele><time>2026-04-21T17:07:52.997Z</time></trkpt><trkpt lat="40.17606367546946" lon="18.024191094546882"><ele>39.0</ele><time>2026-04-21T17:07:54.997Z</time></trkpt><trkpt lat="40.17595228416876" lon="18.024179674779898"><ele>39.0</ele><time>2026-04-21T17:07:56.997Z</time></trkpt><trkpt lat="40.17585171100195" lon="18.024165821305264"><ele>39.0</ele><time>2026-04-21T17:07:58.998Z</time></trkpt><trkpt lat="40.17576732496414" lon="18.024207166088246"><ele>39.0</ele><time>2026-04-21T17:08:00.998Z</time></trkpt><trkpt lat="40.175676255750375" lon="18.024238578744434"><ele>39.0</ele><time>2026-04-21T17:08:02.997Z</time></trkpt><trkpt lat="40.175613638020145" lon="18.024115927142464"><ele>39.0</ele><time>2026-04-21T17:08:03.997Z</time></trkpt><trkpt lat="40.175527012661604" lon="18.02408374618295"><ele>39.0</ele><time>2026-04-21T17:08:05.997Z</time></trkpt><trkpt lat="40.17543997757784" lon="18.02405477260621"><ele>39.0</ele><time>2026-04-21T17:08:07.998Z</time></trkpt><trkpt lat="40.17533912820906" lon="18.024027524976788"><ele>39.0</ele><time>2026-04-21T17:08:09.997Z</time></trkpt><trkpt lat="40.17521602680986" lon="18.02399455791884"><ele>39.0</ele><time>2026-04-21T17:08:11.997Z</time></trkpt><trkpt lat="40.17514826158395" lon="18.023978337068183"><ele>39.0</ele><time>2026-04-21T17:08:12.997Z</time></trkpt><trkpt lat="40.17507460844647" lon="18.02396073764781"><ele>39.0</ele><time>2026-04-21T17:08:13.997Z</time></trkpt><trkpt lat="40.174999991389825" lon="18.02394024780448"><ele>39.0</ele><time>2026-04-21T17:08:14.997Z</time></trkpt><trkpt lat="40.17492450827512" lon="18.023922763113784"><ele>39.0</ele><time>2026-04-21T17:08:15.997Z</time></trkpt><trkpt lat="40.17484974762738" lon="18.023904980209583"><ele>39.0</ele><time>2026-04-21T17:08:16.997Z</time></trkpt><trkpt lat="40.17477705491129" lon="18.02388754983864"><ele>39.0</ele><time>2026-04-21T17:08:17.997Z</time></trkpt><trkpt lat="40.17471574649989" lon="18.02384992635191"><ele>39.0</ele><time>2026-04-21T17:08:18.997Z</time></trkpt><trkpt lat="40.174642021405795" lon="18.023835879021927"><ele>39.166666666666664</ele><time>2026-04-21T17:08:19.997Z</time></trkpt><trkpt lat="40.17457036699871" lon="18.023817714090683"><ele>39.333333333333336</ele><time>2026-04-21T17:08:20.997Z</time></trkpt><trkpt lat="40.174495319643455" lon="18.023803498299095"><ele>39.5</ele><time>2026-04-21T17:08:21.997Z</time></trkpt><trkpt lat="40.17442301726051" lon="18.02378553581999"><ele>39.66666666666667</ele><time>2026-04-21T17:08:22.997Z</time></trkpt><trkpt lat="40.174348535643894" lon="18.023769741660946"><ele>39.833333333333336</ele><time>2026-04-21T17:08:23.997Z</time></trkpt><trkpt lat="40.17429005011096" lon="18.023725019655227"><ele>40.0</ele><time>2026-04-21T17:08:24.997Z</time></trkpt><trkpt lat="40.17415218102034" lon="18.023713854207116"><ele>40.0</ele><time>2026-04-21T17:08:26.997Z</time></trkpt><trkpt lat="40.17408232677722" lon="18.023694280539843"><ele>40.0</ele><time>2026-04-21T17:08:27.997Z</time></trkpt><trkpt lat="40.17401115169232" lon="18.023679039174326"><ele>40.0</ele><time>2026-04-21T17:08:28.997Z</time></trkpt><trkpt lat="40.17393978793253" lon="18.023663930008055"><ele>40.0</ele><time>2026-04-21T17:08:29.997Z</time></trkpt><trkpt lat="40.17386510544197" lon="18.023654710740225"><ele>40.0</ele><time>2026-04-21T17:08:30.997Z</time></trkpt><trkpt lat="40.173790459168906" lon="18.02364027029946"><ele>40.0</ele><time>2026-04-21T17:08:31.997Z</time></trkpt><trkpt lat="40.173717493087956" lon="18.023625160802375"><ele>40.0</ele><time>2026-04-21T17:08:32.997Z</time></trkpt><trkpt lat="40.17364697669082" lon="18.023605690903516"><ele>40.0</ele><time>2026-04-21T17:08:33.997Z</time></trkpt><trkpt lat="40.17357014600469" lon="18.023589841780932"><ele>40.0</ele><time>2026-04-21T17:08:34.997Z</time></trkpt><trkpt lat="40.17349327048191" lon="18.023572571546556"><ele>40.0</ele><time>2026-04-21T17:08:35.997Z</time></trkpt><trkpt lat="40.17342190177604" lon="18.02355319972277"><ele>40.0</ele><time>2026-04-21T17:08:36.997Z</time></trkpt><trkpt lat="40.17335080309149" lon="18.023533648487067"><ele>40.0</ele><time>2026-04-21T17:08:37.997Z</time></trkpt><trkpt lat="40.17327971421399" lon="18.023509158013187"><ele>40.0</ele><time>2026-04-21T17:08:38.997Z</time></trkpt><trkpt lat="40.17320427326499" lon="18.023492220384522"><ele>40.0</ele><time>2026-04-21T17:08:39.997Z</time></trkpt><trkpt lat="40.17313077572437" lon="18.0234759449036"><ele>40.0</ele><time>2026-04-21T17:08:40.997Z</time></trkpt><trkpt lat="40.173054462887606" lon="18.02346199387872"><ele>40.0</ele><time>2026-04-21T17:08:41.997Z</time></trkpt><trkpt lat="40.17297944033487" lon="18.023445964065445"><ele>40.0</ele><time>2026-04-21T17:08:42.997Z</time></trkpt><trkpt lat="40.17290195274695" lon="18.023421454500944"><ele>40.0</ele><time>2026-04-21T17:08:43.997Z</time></trkpt><trkpt lat="40.172831715063126" lon="18.023400402544812"><ele>40.0</ele><time>2026-04-21T17:08:44.997Z</time></trkpt><trkpt lat="40.1727572268008" lon="18.023379263428293"><ele>40.0</ele><time>2026-04-21T17:08:45.997Z</time></trkpt><trkpt lat="40.17267874805429" lon="18.023361326113427"><ele>40.0</ele><time>2026-04-21T17:08:46.997Z</time></trkpt><trkpt lat="40.172602269225756" lon="18.023332032476524"><ele>40.0</ele><time>2026-04-21T17:08:47.997Z</time></trkpt><trkpt lat="40.17251909036457" lon="18.023309110798177"><ele>40.0</ele><time>2026-04-21T17:08:48.997Z</time></trkpt><trkpt lat="40.172429280616726" lon="18.023286201005615"><ele>40.0</ele><time>2026-04-21T17:08:49.997Z</time></trkpt><trkpt lat="40.17234817853541" lon="18.023266433383586"><ele>40.0</ele><time>2026-04-21T17:08:50.997Z</time></trkpt><trkpt lat="40.17226796204292" lon="18.02325090680277"><ele>40.333333333333336</ele><time>2026-04-21T17:08:51.997Z</time></trkpt><trkpt lat="40.17218996452149" lon="18.02323234573853"><ele>40.66666666666667</ele><time>2026-04-21T17:08:52.997Z</time></trkpt><trkpt lat="40.172114816963635" lon="18.023217763835575"><ele>41.0</ele><time>2026-04-21T17:08:53.997Z</time></trkpt><trkpt lat="40.17204964631894" lon="18.0232034072976"><ele>41.333333333333336</ele><time>2026-04-21T17:08:54.997Z</time></trkpt><trkpt lat="40.17192194413448" lon="18.023172523942257"><ele>41.666666666666664</ele><time>2026-04-21T17:08:56.997Z</time></trkpt><trkpt lat="40.171852873872716" lon="18.023158200738703"><ele>42.0</ele><time>2026-04-21T17:08:57.997Z</time></trkpt><trkpt lat="40.17178764300696" lon="18.0231442529194"><ele>42.0</ele><time>2026-04-21T17:08:58.997Z</time></trkpt><trkpt lat="40.171663365048815" lon="18.023116801722864"><ele>42.0</ele><time>2026-04-21T17:09:00.997Z</time></trkpt><trkpt lat="40.1715652888071" lon="18.023094766642874"><ele>42.0</ele><time>2026-04-21T17:09:02.997Z</time></trkpt><trkpt lat="40.17150136731424" lon="18.02307020061651"><ele>42.0</ele><time>2026-04-21T17:09:04.997Z</time></trkpt><trkpt lat="40.17143026252128" lon="18.0230600699417"><ele>42.0</ele><time>2026-04-21T17:09:07.997Z</time></trkpt><trkpt lat="40.171355567598745" lon="18.023047427932262"><ele>42.0</ele><time>2026-04-21T17:09:29.996Z</time></trkpt><trkpt lat="40.17125959097693" lon="18.023021431570942"><ele>41.6</ele><time>2026-04-21T17:09:31.996Z</time></trkpt><trkpt lat="40.171154972338655" lon="18.022993094355396"><ele>41.2</ele><time>2026-04-21T17:09:33.996Z</time></trkpt><trkpt lat="40.171056647146045" lon="18.022969912770876"><ele>40.8</ele><time>2026-04-21T17:09:35.996Z</time></trkpt><trkpt lat="40.17094736203658" lon="18.02295578759053"><ele>40.4</ele><time>2026-04-21T17:09:37.996Z</time></trkpt><trkpt lat="40.17082297805267" lon="18.02292324550451"><ele>40.0</ele><time>2026-04-21T17:09:39.996Z</time></trkpt><trkpt lat="40.17075828549323" lon="18.022907237571825"><ele>40.0</ele><time>2026-04-21T17:09:40.996Z</time></trkpt><trkpt lat="40.17064517397917" lon="18.022867691685214"><ele>40.0</ele><time>2026-04-21T17:09:42.996Z</time></trkpt><trkpt lat="40.170520010035766" lon="18.02283207873014"><ele>40.0</ele><time>2026-04-21T17:09:44.996Z</time></trkpt><trkpt lat="40.170451507745874" lon="18.022822506850893"><ele>40.0</ele><time>2026-04-21T17:09:45.996Z</time></trkpt><trkpt lat="40.17038641660074" lon="18.022815189969574"><ele>40.0</ele><time>2026-04-21T17:09:46.996Z</time></trkpt><trkpt lat="40.17031646563018" lon="18.022798154348376"><ele>40.0</ele><time>2026-04-21T17:09:47.996Z</time></trkpt><trkpt lat="40.17025093742687" lon="18.022782155582327"><ele>40.0</ele><time>2026-04-21T17:09:48.996Z</time></trkpt><trkpt lat="40.170156419813814" lon="18.02274823012305"><ele>40.0</ele><time>2026-04-21T17:09:50.996Z</time></trkpt><trkpt lat="40.17004702607721" lon="18.022743577880007"><ele>40.0</ele><time>2026-04-21T17:09:52.996Z</time></trkpt><trkpt lat="40.16993796828536" lon="18.022748419177713"><ele>40.0</ele><time>2026-04-21T17:09:54.996Z</time></trkpt><trkpt lat="40.16987541389353" lon="18.022734024628342"><ele>40.0</ele><time>2026-04-21T17:09:55.996Z</time></trkpt><trkpt lat="40.1697410313819" lon="18.022710994352618"><ele>39.66666666666667</ele><time>2026-04-21T17:09:57.996Z</time></trkpt><trkpt lat="40.169663870918555" lon="18.02270844208608"><ele>39.333333333333336</ele><time>2026-04-21T17:09:58.996Z</time></trkpt><trkpt lat="40.16958417756747" lon="18.022691160349073"><ele>39.0</ele><time>2026-04-21T17:09:59.996Z</time></trkpt><trkpt lat="40.169507650339526" lon="18.022654755154157"><ele>38.666666666666664</ele><time>2026-04-21T17:10:00.996Z</time></trkpt><trkpt lat="40.16943070591498" lon="18.022614956901986"><ele>38.33333333333333</ele><time>2026-04-21T17:10:01.996Z</time></trkpt><trkpt lat="40.16935102819263" lon="18.022577736437924"><ele>38.0</ele><time>2026-04-21T17:10:02.996Z</time></trkpt><trkpt lat="40.16926847331886" lon="18.022547869008726"><ele>38.0</ele><time>2026-04-21T17:10:03.997Z</time></trkpt><trkpt lat="40.16918353408493" lon="18.022522046232726"><ele>38.0</ele><time>2026-04-21T17:10:04.997Z</time></trkpt><trkpt lat="40.16909178843403" lon="18.022502284517966"><ele>38.0</ele><time>2026-04-21T17:10:05.997Z</time></trkpt><trkpt lat="40.16899770126348" lon="18.022480269735507"><ele>38.0</ele><time>2026-04-21T17:10:06.997Z</time></trkpt><trkpt lat="40.16890433692685" lon="18.02245817933444"><ele>38.0</ele><time>2026-04-21T17:10:07.997Z</time></trkpt><trkpt lat="40.16881024975393" lon="18.022435619711622"><ele>38.8</ele><time>2026-04-21T17:10:08.997Z</time></trkpt><trkpt lat="40.16870931436413" lon="18.022414619927275"><ele>39.599999999999994</ele><time>2026-04-21T17:10:09.997Z</time></trkpt><trkpt lat="40.16860747022858" lon="18.022389444628406"><ele>40.400000000000006</ele><time>2026-04-21T17:10:10.997Z</time></trkpt><trkpt lat="40.16849774113621" lon="18.02236474933644"><ele>41.2</ele><time>2026-04-21T17:10:11.997Z</time></trkpt><trkpt lat="40.168389346247096" lon="18.022336653305313"><ele>42.0</ele><time>2026-04-21T17:10:12.998Z</time></trkpt><trkpt lat="40.168278746341684" lon="18.022307717803553"><ele>41.0</ele><time>2026-04-21T17:10:13.996Z</time></trkpt><trkpt lat="40.16816378773734" lon="18.02228045105119"><ele>40.0</ele><time>2026-04-21T17:10:14.996Z</time></trkpt><trkpt lat="40.168049735539974" lon="18.022252673797585"><ele>39.0</ele><time>2026-04-21T17:10:15.998Z</time></trkpt><trkpt lat="40.167933452306286" lon="18.022228020969585"><ele>38.0</ele><time>2026-04-21T17:10:16.997Z</time></trkpt><trkpt lat="40.16782302511775" lon="18.022201196641113"><ele>38.0</ele><time>2026-04-21T17:10:17.997Z</time></trkpt><trkpt lat="40.167714623684034" lon="18.022175866805206"><ele>38.0</ele><time>2026-04-21T17:10:18.997Z</time></trkpt><trkpt lat="40.16760745550549" lon="18.02214949377333"><ele>38.0</ele><time>2026-04-21T17:10:19.997Z</time></trkpt><trkpt lat="40.16750373567952" lon="18.022122223920313"><ele>38.0</ele><time>2026-04-21T17:10:20.997Z</time></trkpt><trkpt lat="40.16739226960597" lon="18.022092797183987"><ele>38.0</ele><time>2026-04-21T17:10:21.997Z</time></trkpt><trkpt lat="40.167277878820414" lon="18.022064296532452"><ele>37.6</ele><time>2026-04-21T17:10:22.997Z</time></trkpt><trkpt lat="40.16716787517457" lon="18.022036652801518"><ele>37.199999999999996</ele><time>2026-04-21T17:10:23.997Z</time></trkpt><trkpt lat="40.16705999450864" lon="18.022008732951146"><ele>36.8</ele><time>2026-04-21T17:10:24.997Z</time></trkpt><trkpt lat="40.166958528160855" lon="18.02198121037434"><ele>36.4</ele><time>2026-04-21T17:10:25.997Z</time></trkpt><trkpt lat="40.16686101785402" lon="18.021955060948557"><ele>36.0</ele><time>2026-04-21T17:10:26.997Z</time></trkpt><trkpt lat="40.16676839003467" lon="18.021931291386704"><ele>36.0</ele><time>2026-04-21T17:10:27.997Z</time></trkpt><trkpt lat="40.16668163903687" lon="18.021905971873828"><ele>36.0</ele><time>2026-04-21T17:10:28.997Z</time></trkpt><trkpt lat="40.16659943443888" lon="18.021883175026893"><ele>36.0</ele><time>2026-04-21T17:10:29.997Z</time></trkpt><trkpt lat="40.1665282947379" lon="18.02186680273794"><ele>36.0</ele><time>2026-04-21T17:10:30.997Z</time></trkpt><trkpt lat="40.16641574763957" lon="18.021811545080755"><ele>36.0</ele><time>2026-04-21T17:10:32.997Z</time></trkpt><trkpt lat="40.166361763092894" lon="18.021760654405373"><ele>36.0</ele><time>2026-04-21T17:10:33.997Z</time></trkpt><trkpt lat="40.16630351950607" lon="18.021716769696443"><ele>36.333333333333336</ele><time>2026-04-21T17:10:34.997Z</time></trkpt><trkpt lat="40.166233252423936" lon="18.021697783958995"><ele>36.666666666666664</ele><time>2026-04-21T17:10:35.997Z</time></trkpt><trkpt lat="40.16616053635867" lon="18.02170289524697"><ele>37.0</ele><time>2026-04-21T17:10:36.997Z</time></trkpt><trkpt lat="40.166085368411395" lon="18.021724850798442"><ele>37.33333333333333</ele><time>2026-04-21T17:10:37.997Z</time></trkpt><trkpt lat="40.1660068097959" lon="18.021728669151884"><ele>37.666666666666664</ele><time>2026-04-21T17:10:38.997Z</time></trkpt><trkpt lat="40.165923864965194" lon="18.021713327572414"><ele>38.0</ele><time>2026-04-21T17:10:39.997Z</time></trkpt><trkpt lat="40.16583994772852" lon="18.02169241460132"><ele>38.0</ele><time>2026-04-21T17:10:40.997Z</time></trkpt><trkpt lat="40.16575587388144" lon="18.02166713466588"><ele>38.0</ele><time>2026-04-21T17:10:41.997Z</time></trkpt><trkpt lat="40.16566985088619" lon="18.02164575832289"><ele>38.0</ele><time>2026-04-21T17:10:42.997Z</time></trkpt><trkpt lat="40.16558437939568" lon="18.021625338989907"><ele>38.0</ele><time>2026-04-21T17:10:43.997Z</time></trkpt><trkpt lat="40.16549653901027" lon="18.021598395207885"><ele>38.0</ele><time>2026-04-21T17:10:44.997Z</time></trkpt><trkpt lat="40.165407872672596" lon="18.021574331202302"><ele>38.0</ele><time>2026-04-21T17:10:45.997Z</time></trkpt><trkpt lat="40.16531920292908" lon="18.021551046674425"><ele>38.199999999999996</ele><time>2026-04-21T17:10:46.997Z</time></trkpt><trkpt lat="40.165229494894525" lon="18.021528509295855"><ele>38.4</ele><time>2026-04-21T17:10:47.997Z</time></trkpt><trkpt lat="40.16513701315265" lon="18.02150310117614"><ele>38.599999999999994</ele><time>2026-04-21T17:10:48.997Z</time></trkpt><trkpt lat="40.165043564540895" lon="18.021476161873213"><ele>38.8</ele><time>2026-04-21T17:10:49.996Z</time></trkpt><trkpt lat="40.164946930638465" lon="18.02145272993799"><ele>39.0</ele><time>2026-04-21T17:10:50.996Z</time></trkpt><trkpt lat="40.1648496271968" lon="18.021425994419484"><ele>39.0</ele><time>2026-04-21T17:10:51.996Z</time></trkpt><trkpt lat="40.164751275577814" lon="18.02140022559971"><ele>39.0</ele><time>2026-04-21T17:10:52.996Z</time></trkpt><trkpt lat="40.16464796902585" lon="18.021376700238154"><ele>39.0</ele><time>2026-04-21T17:10:53.996Z</time></trkpt><trkpt lat="40.16454494524659" lon="18.02135364442387"><ele>39.0</ele><time>2026-04-21T17:10:54.996Z</time></trkpt><trkpt lat="40.16444162598742" lon="18.02132798181723"><ele>39.0</ele><time>2026-04-21T17:10:55.996Z</time></trkpt><trkpt lat="40.16433656223469" lon="18.021302738537265"><ele>39.0</ele><time>2026-04-21T17:10:56.996Z</time></trkpt><trkpt lat="40.16423047067977" lon="18.021276942851173"><ele>39.0</ele><time>2026-04-21T17:10:57.996Z</time></trkpt><trkpt lat="40.1641216881068" lon="18.021249720201027"><ele>39.0</ele><time>2026-04-21T17:10:58.996Z</time></trkpt><trkpt lat="40.164011865058" lon="18.02122270559145"><ele>39.0</ele><time>2026-04-21T17:10:59.996Z</time></trkpt><trkpt lat="40.163900110134456" lon="18.02119399289885"><ele>39.0</ele><time>2026-04-21T17:11:00.996Z</time></trkpt><trkpt lat="40.16378843664658" lon="18.021164453550647"><ele>40.0</ele><time>2026-04-21T17:11:01.996Z</time></trkpt><trkpt lat="40.16367305080029" lon="18.021135755001534"><ele>41.0</ele><time>2026-04-21T17:11:02.996Z</time></trkpt><trkpt lat="40.163557738663826" lon="18.021103654302628"><ele>42.0</ele><time>2026-04-21T17:11:03.996Z</time></trkpt><trkpt lat="40.1634419400998" lon="18.021072914878758"><ele>43.0</ele><time>2026-04-21T17:11:04.996Z</time></trkpt><trkpt lat="40.163326756951136" lon="18.0210432162211"><ele>43.0</ele><time>2026-04-21T17:11:05.996Z</time></trkpt><trkpt lat="40.1632012587771" lon="18.021014214497576"><ele>43.0</ele><time>2026-04-21T17:11:06.996Z</time></trkpt><trkpt lat="40.16306235391466" lon="18.020980642557575"><ele>43.0</ele><time>2026-04-21T17:11:07.996Z</time></trkpt><trkpt lat="40.162921188249" lon="18.020946346139336"><ele>43.0</ele><time>2026-04-21T17:11:08.996Z</time></trkpt><trkpt lat="40.162781370868764" lon="18.020910701314182"><ele>43.0</ele><time>2026-04-21T17:11:09.996Z</time></trkpt><trkpt lat="40.16264681651567" lon="18.020876284458268"><ele>43.0</ele><time>2026-04-21T17:11:10.996Z</time></trkpt><trkpt lat="40.1625187144734" lon="18.02083990947216"><ele>43.0</ele><time>2026-04-21T17:11:11.996Z</time></trkpt><trkpt lat="40.16239502609676" lon="18.020809680957736"><ele>43.0</ele><time>2026-04-21T17:11:12.996Z</time></trkpt><trkpt lat="40.162272479479164" lon="18.020779821854592"><ele>42.25</ele><time>2026-04-21T17:11:13.996Z</time></trkpt><trkpt lat="40.16215317399983" lon="18.02074837193846"><ele>41.5</ele><time>2026-04-21T17:11:14.996Z</time></trkpt><trkpt lat="40.16203460253771" lon="18.020717917492053"><ele>40.75</ele><time>2026-04-21T17:11:15.996Z</time></trkpt><trkpt lat="40.16191928696564" lon="18.020689364321477"><ele>40.0</ele><time>2026-04-21T17:11:16.996Z</time></trkpt><trkpt lat="40.16180749923959" lon="18.020660175659664"><ele>40.0</ele><time>2026-04-21T17:11:17.996Z</time></trkpt><trkpt lat="40.16170125594797" lon="18.02063496272191"><ele>40.0</ele><time>2026-04-21T17:11:18.996Z</time></trkpt><trkpt lat="40.161597941355275" lon="18.020618649945384"><ele>40.0</ele><time>2026-04-21T17:11:19.996Z</time></trkpt><trkpt lat="40.161485004871935" lon="18.020605965068082"><ele>40.0</ele><time>2026-04-21T17:11:20.996Z</time></trkpt><trkpt lat="40.1613681982298" lon="18.02058732114387"><ele>40.0</ele><time>2026-04-21T17:11:21.996Z</time></trkpt><trkpt lat="40.16123827170202" lon="18.020555033930734"><ele>40.5</ele><time>2026-04-21T17:11:22.996Z</time></trkpt><trkpt lat="40.161096633688764" lon="18.020520635213522"><ele>41.0</ele><time>2026-04-21T17:11:23.996Z</time></trkpt><trkpt lat="40.160950978143156" lon="18.020481772153364"><ele>41.5</ele><time>2026-04-21T17:11:24.996Z</time></trkpt><trkpt lat="40.16079806251375" lon="18.020442061259516"><ele>42.0</ele><time>2026-04-21T17:11:25.996Z</time></trkpt><trkpt lat="40.16063291078056" lon="18.02040224639532"><ele>42.666666666666664</ele><time>2026-04-21T17:11:26.996Z</time></trkpt><trkpt lat="40.160462995074255" lon="18.020360177087696"><ele>43.33333333333333</ele><time>2026-04-21T17:11:27.996Z</time></trkpt><trkpt lat="40.16029323552117" lon="18.020317024636803"><ele>44.0</ele><time>2026-04-21T17:11:28.996Z</time></trkpt><trkpt lat="40.16011232429701" lon="18.020268591730733"><ele>44.0</ele><time>2026-04-21T17:11:29.996Z</time></trkpt><trkpt lat="40.15992704757738" lon="18.020218313625232"><ele>44.0</ele><time>2026-04-21T17:11:30.996Z</time></trkpt><trkpt lat="40.159736179470315" lon="18.020163536188136"><ele>44.0</ele><time>2026-04-21T17:11:31.996Z</time></trkpt><trkpt lat="40.15954231010538" lon="18.02011529701547"><ele>44.33333333333333</ele><time>2026-04-21T17:11:32.996Z</time></trkpt><trkpt lat="40.15934190094103" lon="18.020066015214788"><ele>44.666666666666664</ele><time>2026-04-21T17:11:33.996Z</time></trkpt><trkpt lat="40.15914148937941" lon="18.020016161089778"><ele>45.0</ele><time>2026-04-21T17:11:34.996Z</time></trkpt><trkpt lat="40.15893718591841" lon="18.0199570546132"><ele>45.0</ele><time>2026-04-21T17:11:35.996Z</time></trkpt><trkpt lat="40.15873217774556" lon="18.019905257656454"><ele>45.0</ele><time>2026-04-21T17:11:36.996Z</time></trkpt><trkpt lat="40.15852529732434" lon="18.019853979070916"><ele>45.0</ele><time>2026-04-21T17:11:37.996Z</time></trkpt><trkpt lat="40.158315335928044" lon="18.019796487671865"><ele>45.333333333333336</ele><time>2026-04-21T17:11:38.996Z</time></trkpt><trkpt lat="40.15811215317156" lon="18.019747979778728"><ele>45.66666666666667</ele><time>2026-04-21T17:11:39.996Z</time></trkpt><trkpt lat="40.15791865957404" lon="18.01970204232825"><ele>46.0</ele><time>2026-04-21T17:11:40.996Z</time></trkpt><trkpt lat="40.15773612817712" lon="18.019658751373456"><ele>46.0</ele><time>2026-04-21T17:11:41.996Z</time></trkpt><trkpt lat="40.15756095120478" lon="18.01961632461841"><ele>46.0</ele><time>2026-04-21T17:11:42.996Z</time></trkpt><trkpt lat="40.15740053299776" lon="18.01957631429399"><ele>46.0</ele><time>2026-04-21T17:11:43.996Z</time></trkpt><trkpt lat="40.15724800823797" lon="18.019539803219047"><ele>46.5</ele><time>2026-04-21T17:11:44.996Z</time></trkpt><trkpt lat="40.15711220084741" lon="18.019505221461703"><ele>47.0</ele><time>2026-04-21T17:11:45.996Z</time></trkpt><trkpt lat="40.1569869245628" lon="18.01947605280079"><ele>47.5</ele><time>2026-04-21T17:11:46.996Z</time></trkpt><trkpt lat="40.15688443899631" lon="18.01944690223031"><ele>48.0</ele><time>2026-04-21T17:11:47.996Z</time></trkpt><trkpt lat="40.15679237138304" lon="18.019422438960408"><ele>48.0</ele><time>2026-04-21T17:11:48.996Z</time></trkpt><trkpt lat="40.156713096565284" lon="18.019399501602194"><ele>48.0</ele><time>2026-04-21T17:11:49.996Z</time></trkpt><trkpt lat="40.15664559626982" lon="18.01937001853312"><ele>48.0</ele><time>2026-04-21T17:11:50.996Z</time></trkpt><trkpt lat="40.15659314699423" lon="18.019322660192397"><ele>48.0</ele><time>2026-04-21T17:11:51.996Z</time></trkpt><trkpt lat="40.15653721600266" lon="18.019255588902826"><ele>48.0</ele><time>2026-04-21T17:11:52.996Z</time></trkpt><trkpt lat="40.15651350540298" lon="18.019145269434862"><ele>48.0</ele><time>2026-04-21T17:11:53.996Z</time></trkpt><trkpt lat="40.15645152295773" lon="18.019069376635134"><ele>49.0</ele><time>2026-04-21T17:11:54.996Z</time></trkpt><trkpt lat="40.156397964433616" lon="18.018960241435614"><ele>50.0</ele><time>2026-04-21T17:11:55.996Z</time></trkpt><trkpt lat="40.15634181351664" lon="18.018836513685"><ele>51.0</ele><time>2026-04-21T17:11:56.996Z</time></trkpt><trkpt lat="40.15629570681867" lon="18.018702461349605"><ele>52.0</ele><time>2026-04-21T17:11:57.996Z</time></trkpt><trkpt lat="40.15625489426906" lon="18.01854562732385"><ele>53.0</ele><time>2026-04-21T17:11:58.996Z</time></trkpt><trkpt lat="40.156196432994804" lon="18.018387850502037"><ele>52.25</ele><time>2026-04-21T17:11:59.996Z</time></trkpt><trkpt lat="40.15613655225538" lon="18.01822583705978"><ele>51.5</ele><time>2026-04-21T17:12:00.996Z</time></trkpt><trkpt lat="40.15606603141284" lon="18.01805428879172"><ele>50.75</ele><time>2026-04-21T17:12:01.996Z</time></trkpt><trkpt lat="40.155988101761764" lon="18.01788411349129"><ele>50.0</ele><time>2026-04-21T17:12:02.996Z</time></trkpt><trkpt lat="40.155913339842215" lon="18.01770618860932"><ele>50.0</ele><time>2026-04-21T17:12:03.996Z</time></trkpt><trkpt lat="40.15583418030026" lon="18.017537984020972"><ele>50.0</ele><time>2026-04-21T17:12:04.996Z</time></trkpt><trkpt lat="40.15576107753736" lon="18.017357934650718"><ele>50.0</ele><time>2026-04-21T17:12:05.996Z</time></trkpt><trkpt lat="40.155690195611214" lon="18.017170375857326"><ele>50.5</ele><time>2026-04-21T17:12:06.995Z</time></trkpt><trkpt lat="40.155619999184005" lon="18.016995022908954"><ele>51.0</ele><time>2026-04-21T17:12:07.995Z</time></trkpt><trkpt lat="40.15554848731329" lon="18.016831357725092"><ele>51.5</ele><time>2026-04-21T17:12:08.995Z</time></trkpt><trkpt lat="40.155489248767445" lon="18.01668449570425"><ele>52.0</ele><time>2026-04-21T17:12:09.996Z</time></trkpt><trkpt lat="40.155434890893495" lon="18.016547224339053"><ele>52.0</ele><time>2026-04-21T17:12:10.996Z</time></trkpt><trkpt lat="40.15538713601921" lon="18.016428794104133"><ele>52.0</ele><time>2026-04-21T17:12:11.996Z</time></trkpt><trkpt lat="40.15534165029678" lon="18.01632489172495"><ele>52.0</ele><time>2026-04-21T17:12:12.997Z</time></trkpt><trkpt lat="40.15530372548873" lon="18.01622142040396"><ele>52.0</ele><time>2026-04-21T17:12:13.996Z</time></trkpt><trkpt lat="40.15526426844709" lon="18.016114448181373"><ele>52.0</ele><time>2026-04-21T17:12:14.996Z</time></trkpt><trkpt lat="40.15522029422958" lon="18.016021072270114"><ele>52.0</ele><time>2026-04-21T17:12:15.996Z</time></trkpt><trkpt lat="40.155172141747386" lon="18.015916702400315"><ele>52.0</ele><time>2026-04-21T17:12:16.996Z</time></trkpt><trkpt lat="40.155126309000536" lon="18.015792112217497"><ele>52.0</ele><time>2026-04-21T17:12:17.996Z</time></trkpt><trkpt lat="40.15506914540866" lon="18.015658115117"><ele>52.0</ele><time>2026-04-21T17:12:18.997Z</time></trkpt><trkpt lat="40.15500607373516" lon="18.01552416355441"><ele>52.0</ele><time>2026-04-21T17:12:19.996Z</time></trkpt><trkpt lat="40.15493445086857" lon="18.015375193505342"><ele>52.0</ele><time>2026-04-21T17:12:20.996Z</time></trkpt><trkpt lat="40.154869074467165" lon="18.015200812641393"><ele>52.0</ele><time>2026-04-21T17:12:21.996Z</time></trkpt><trkpt lat="40.15479563756825" lon="18.01502287376699"><ele>52.0</ele><time>2026-04-21T17:12:22.997Z</time></trkpt><trkpt lat="40.15471571823657" lon="18.014829241383204"><ele>52.666666666666664</ele><time>2026-04-21T17:12:23.997Z</time></trkpt><trkpt lat="40.15463350999488" lon="18.01463386554122"><ele>53.33333333333333</ele><time>2026-04-21T17:12:24.997Z</time></trkpt><trkpt lat="40.154553927231184" lon="18.014436669790232"><ele>54.0</ele><time>2026-04-21T17:12:25.997Z</time></trkpt><trkpt lat="40.15446954001327" lon="18.014227978384163"><ele>53.66666666666667</ele><time>2026-04-21T17:12:26.997Z</time></trkpt><trkpt lat="40.15438494293977" lon="18.014008287739962"><ele>53.333333333333336</ele><time>2026-04-21T17:12:27.997Z</time></trkpt><trkpt lat="40.154287362296024" lon="18.013791745629078"><ele>53.0</ele><time>2026-04-21T17:12:28.997Z</time></trkpt><trkpt lat="40.15419200146616" lon="18.013565067413243"><ele>53.0</ele><time>2026-04-21T17:12:29.997Z</time></trkpt><trkpt lat="40.15408978679541" lon="18.01333777307113"><ele>53.0</ele><time>2026-04-21T17:12:30.997Z</time></trkpt><trkpt lat="40.153987091312196" lon="18.013097884498407"><ele>53.0</ele><time>2026-04-21T17:12:31.997Z</time></trkpt><trkpt lat="40.15389101896206" lon="18.01287155184067"><ele>52.333333333333336</ele><time>2026-04-21T17:12:32.996Z</time></trkpt><trkpt lat="40.15380570267858" lon="18.01266217145675"><ele>51.66666666666667</ele><time>2026-04-21T17:12:33.996Z</time></trkpt><trkpt lat="40.15373654177788" lon="18.01247995154965"><ele>51.0</ele><time>2026-04-21T17:12:34.996Z</time></trkpt><trkpt lat="40.15366994283433" lon="18.01231882927019"><ele>50.8</ele><time>2026-04-21T17:12:35.996Z</time></trkpt><trkpt lat="40.15361399887436" lon="18.01217925703088"><ele>50.599999999999994</ele><time>2026-04-21T17:12:36.996Z</time></trkpt><trkpt lat="40.15357170469806" lon="18.012061006035548"><ele>50.4</ele><time>2026-04-21T17:12:37.996Z</time></trkpt><trkpt lat="40.15352715499027" lon="18.011959467531522"><ele>50.2</ele><time>2026-04-21T17:12:38.996Z</time></trkpt><trkpt lat="40.15348228996524" lon="18.011865529503947"><ele>50.0</ele><time>2026-04-21T17:12:39.996Z</time></trkpt><trkpt lat="40.15343163405551" lon="18.011768750633085"><ele>50.0</ele><time>2026-04-21T17:12:40.996Z</time></trkpt><trkpt lat="40.15337843776293" lon="18.01165581386463"><ele>50.0</ele><time>2026-04-21T17:12:41.996Z</time></trkpt><trkpt lat="40.15332214906922" lon="18.01152322566555"><ele>50.0</ele><time>2026-04-21T17:12:42.996Z</time></trkpt><trkpt lat="40.15326491673012" lon="18.011373067096166"><ele>50.0</ele><time>2026-04-21T17:12:43.996Z</time></trkpt><trkpt lat="40.15320599886284" lon="18.011223591466774"><ele>49.333333333333336</ele><time>2026-04-21T17:12:44.996Z</time></trkpt><trkpt lat="40.15313631915892" lon="18.011052430762245"><ele>48.66666666666667</ele><time>2026-04-21T17:12:45.996Z</time></trkpt><trkpt lat="40.15305695698942" lon="18.01086987346464"><ele>48.0</ele><time>2026-04-21T17:12:46.996Z</time></trkpt><trkpt lat="40.15297026218037" lon="18.010674738025905"><ele>47.666666666666664</ele><time>2026-04-21T17:12:47.996Z</time></trkpt><trkpt lat="40.15289045792921" lon="18.01047126648864"><ele>47.33333333333333</ele><time>2026-04-21T17:12:48.996Z</time></trkpt><trkpt lat="40.15281019984077" lon="18.010279613238893"><ele>47.0</ele><time>2026-04-21T17:12:49.996Z</time></trkpt><trkpt lat="40.15273108853575" lon="18.01008432953289"><ele>47.666666666666664</ele><time>2026-04-21T17:12:50.996Z</time></trkpt><trkpt lat="40.152649831682254" lon="18.00989067063967"><ele>48.33333333333333</ele><time>2026-04-21T17:12:51.996Z</time></trkpt><trkpt lat="40.15256115404971" lon="18.009692681705925"><ele>49.0</ele><time>2026-04-21T17:12:52.996Z</time></trkpt><trkpt lat="40.152484452502996" lon="18.009506623052694"><ele>49.0</ele><time>2026-04-21T17:12:53.996Z</time></trkpt><trkpt lat="40.152412688536664" lon="18.009328726695333"><ele>49.0</ele><time>2026-04-21T17:12:54.996Z</time></trkpt><trkpt lat="40.15234924270381" lon="18.009166577463112"><ele>49.0</ele><time>2026-04-21T17:12:55.996Z</time></trkpt><trkpt lat="40.15228439196041" lon="18.009004348658024"><ele>49.0</ele><time>2026-04-21T17:12:56.996Z</time></trkpt><trkpt lat="40.152212409699175" lon="18.00884349675218"><ele>49.75</ele><time>2026-04-21T17:12:57.996Z</time></trkpt><trkpt lat="40.152143295094476" lon="18.008683550687934"><ele>50.5</ele><time>2026-04-21T17:12:58.996Z</time></trkpt><trkpt lat="40.15207080843979" lon="18.00851724544128"><ele>51.25</ele><time>2026-04-21T17:12:59.996Z</time></trkpt><trkpt lat="40.15199586758645" lon="18.008340544302346"><ele>52.0</ele><time>2026-04-21T17:13:00.996Z</time></trkpt><trkpt lat="40.15192902694884" lon="18.00815178816434"><ele>52.0</ele><time>2026-04-21T17:13:01.996Z</time></trkpt><trkpt lat="40.1518454692304" lon="18.007965189060194"><ele>52.0</ele><time>2026-04-21T17:13:02.996Z</time></trkpt><trkpt lat="40.15176565277206" lon="18.00777219258973"><ele>52.0</ele><time>2026-04-21T17:13:03.996Z</time></trkpt><trkpt lat="40.151687167676435" lon="18.007573059448383"><ele>51.666666666666664</ele><time>2026-04-21T17:13:04.996Z</time></trkpt><trkpt lat="40.15159996406706" lon="18.00737156081805"><ele>51.33333333333333</ele><time>2026-04-21T17:13:05.996Z</time></trkpt><trkpt lat="40.15151529312263" lon="18.007160891326066"><ele>51.0</ele><time>2026-04-21T17:13:06.996Z</time></trkpt><trkpt lat="40.15142836503946" lon="18.00695425187755"><ele>51.0</ele><time>2026-04-21T17:13:07.996Z</time></trkpt><trkpt lat="40.15134996210679" lon="18.00675970655621"><ele>51.0</ele><time>2026-04-21T17:13:08.996Z</time></trkpt><trkpt lat="40.15127150744528" lon="18.0065720771366"><ele>51.0</ele><time>2026-04-21T17:13:09.996Z</time></trkpt><trkpt lat="40.15119669533356" lon="18.006404173697717"><ele>51.0</ele><time>2026-04-21T17:13:10.996Z</time></trkpt><trkpt lat="40.15112818602928" lon="18.006255775210814"><ele>51.0</ele><time>2026-04-21T17:13:11.996Z</time></trkpt><trkpt lat="40.15107448389756" lon="18.006111477063307"><ele>51.0</ele><time>2026-04-21T17:13:12.996Z</time></trkpt><trkpt lat="40.1510219025561" lon="18.0059724201862"><ele>51.0</ele><time>2026-04-21T17:13:13.996Z</time></trkpt><trkpt lat="40.1509676110875" lon="18.005826037294995"><ele>51.0</ele><time>2026-04-21T17:13:14.996Z</time></trkpt><trkpt lat="40.15090912266071" lon="18.005690692839888"><ele>51.0</ele><time>2026-04-21T17:13:15.996Z</time></trkpt><trkpt lat="40.150843610429426" lon="18.00555294900641"><ele>51.0</ele><time>2026-04-21T17:13:16.996Z</time></trkpt><trkpt lat="40.15077495125943" lon="18.0054077303189"><ele>51.0</ele><time>2026-04-21T17:13:17.996Z</time></trkpt><trkpt lat="40.15070852623651" lon="18.00525657266668"><ele>51.66666666666667</ele><time>2026-04-21T17:13:18.996Z</time></trkpt><trkpt lat="40.15064076403397" lon="18.005094127822137"><ele>52.333333333333336</ele><time>2026-04-21T17:13:19.996Z</time></trkpt><trkpt lat="40.150570261176696" lon="18.004919834449947"><ele>53.0</ele><time>2026-04-21T17:13:20.996Z</time></trkpt><trkpt lat="40.15049110209562" lon="18.004737273451074"><ele>53.0</ele><time>2026-04-21T17:13:21.996Z</time></trkpt><trkpt lat="40.15041460274114" lon="18.004545004747254"><ele>53.0</ele><time>2026-04-21T17:13:22.996Z</time></trkpt><trkpt lat="40.150334620801765" lon="18.004353902975843"><ele>53.0</ele><time>2026-04-21T17:13:23.996Z</time></trkpt><trkpt lat="40.150254592704364" lon="18.004156628700457"><ele>52.333333333333336</ele><time>2026-04-21T17:13:24.996Z</time></trkpt><trkpt lat="40.1501764019795" lon="18.003964047378187"><ele>51.66666666666667</ele><time>2026-04-21T17:13:25.996Z</time></trkpt><trkpt lat="40.15010009894128" lon="18.00378035309675"><ele>51.0</ele><time>2026-04-21T17:13:26.996Z</time></trkpt><trkpt lat="40.15002020449247" lon="18.003598171606594"><ele>51.0</ele><time>2026-04-21T17:13:27.996Z</time></trkpt><trkpt lat="40.14994759124375" lon="18.00341299401071"><ele>51.0</ele><time>2026-04-21T17:13:28.996Z</time></trkpt><trkpt lat="40.14986179706814" lon="18.003223372504333"><ele>51.0</ele><time>2026-04-21T17:13:29.996Z</time></trkpt><trkpt lat="40.14978832007181" lon="18.003036586778176"><ele>51.0</ele><time>2026-04-21T17:13:30.996Z</time></trkpt><trkpt lat="40.149707930773836" lon="18.002845378587008"><ele>51.0</ele><time>2026-04-21T17:13:31.996Z</time></trkpt><trkpt lat="40.14963302952622" lon="18.002655594564295"><ele>51.0</ele><time>2026-04-21T17:13:32.996Z</time></trkpt><trkpt lat="40.14955796687148" lon="18.00248575214081"><ele>51.0</ele><time>2026-04-21T17:13:33.996Z</time></trkpt><trkpt lat="40.14948454477728" lon="18.00231491881904"><ele>51.0</ele><time>2026-04-21T17:13:34.996Z</time></trkpt><trkpt lat="40.149409080083586" lon="18.002156080009197"><ele>51.0</ele><time>2026-04-21T17:13:35.996Z</time></trkpt><trkpt lat="40.14933965472619" lon="18.001995327533447"><ele>51.0</ele><time>2026-04-21T17:13:36.996Z</time></trkpt><trkpt lat="40.14927712664923" lon="18.001841323224102"><ele>51.0</ele><time>2026-04-21T17:13:37.996Z</time></trkpt><trkpt lat="40.14922080719924" lon="18.001694472101175"><ele>51.0</ele><time>2026-04-21T17:13:38.996Z</time></trkpt><trkpt lat="40.1491588013135" lon="18.001559851099834"><ele>51.0</ele><time>2026-04-21T17:13:39.996Z</time></trkpt><trkpt lat="40.14909977987094" lon="18.00143535119774"><ele>51.0</ele><time>2026-04-21T17:13:40.996Z</time></trkpt><trkpt lat="40.14905176856792" lon="18.00132274781194"><ele>51.166666666666664</ele><time>2026-04-21T17:13:41.996Z</time></trkpt><trkpt lat="40.14900514773787" lon="18.001233128092355"><ele>51.33333333333333</ele><time>2026-04-21T17:13:42.996Z</time></trkpt><trkpt lat="40.148968944330186" lon="18.001155303287824"><ele>51.5</ele><time>2026-04-21T17:13:43.996Z</time></trkpt><trkpt lat="40.14893357394088" lon="18.00100073498762"><ele>51.666666666666664</ele><time>2026-04-21T17:13:45.996Z</time></trkpt><trkpt lat="40.14892164337416" lon="18.000907736166013"><ele>51.83333333333333</ele><time>2026-04-21T17:13:46.996Z</time></trkpt><trkpt lat="40.14889225878693" lon="18.000811112946728"><ele>52.0</ele><time>2026-04-21T17:13:47.996Z</time></trkpt><trkpt lat="40.14884390353869" lon="18.00072514243381"><ele>52.6</ele><time>2026-04-21T17:13:48.996Z</time></trkpt><trkpt lat="40.14878337162817" lon="18.000639967136326"><ele>53.2</ele><time>2026-04-21T17:13:49.995Z</time></trkpt><trkpt lat="40.148720885956" lon="18.000547321936708"><ele>53.8</ele><time>2026-04-21T17:13:50.995Z</time></trkpt><trkpt lat="40.14866952919419" lon="18.00043704808283"><ele>54.4</ele><time>2026-04-21T17:13:51.995Z</time></trkpt><trkpt lat="40.148627081496976" lon="18.00030644434538"><ele>55.0</ele><time>2026-04-21T17:13:52.995Z</time></trkpt><trkpt lat="40.14857303100585" lon="18.000174087736557"><ele>55.0</ele><time>2026-04-21T17:13:53.995Z</time></trkpt><trkpt lat="40.148520201973724" lon="18.00004028723155"><ele>55.0</ele><time>2026-04-21T17:13:54.995Z</time></trkpt><trkpt lat="40.14846437529229" lon="17.999907102687743"><ele>55.0</ele><time>2026-04-21T17:13:55.995Z</time></trkpt><trkpt lat="40.148407676162115" lon="17.9997746738151"><ele>55.0</ele><time>2026-04-21T17:13:56.995Z</time></trkpt><trkpt lat="40.14835290789709" lon="17.999639830471416"><ele>55.0</ele><time>2026-04-21T17:13:57.995Z</time></trkpt><trkpt lat="40.14830216420907" lon="17.999516040189764"><ele>55.0</ele><time>2026-04-21T17:13:58.995Z</time></trkpt><trkpt lat="40.1482545452958" lon="17.99939806809908"><ele>55.0</ele><time>2026-04-21T17:13:59.995Z</time></trkpt><trkpt lat="40.14821237581813" lon="17.9992837210211"><ele>55.0</ele><time>2026-04-21T17:14:00.995Z</time></trkpt><trkpt lat="40.148161473928994" lon="17.99916946348527"><ele>55.0</ele><time>2026-04-21T17:14:01.995Z</time></trkpt><trkpt lat="40.148113120008496" lon="17.999047097224114"><ele>54.8</ele><time>2026-04-21T17:14:02.995Z</time></trkpt><trkpt lat="40.14806473756537" lon="17.998930416015263"><ele>54.6</ele><time>2026-04-21T17:14:03.995Z</time></trkpt><trkpt lat="40.14801165674606" lon="17.998808696420067"><ele>54.400000000000006</ele><time>2026-04-21T17:14:04.995Z</time></trkpt><trkpt lat="40.147960835117395" lon="17.998688190625302"><ele>54.2</ele><time>2026-04-21T17:14:05.995Z</time></trkpt><trkpt lat="40.147913643699404" lon="17.998558492874547"><ele>54.0</ele><time>2026-04-21T17:14:06.995Z</time></trkpt><trkpt lat="40.14786209749866" lon="17.998444866373305"><ele>53.800000000000004</ele><time>2026-04-21T17:14:07.995Z</time></trkpt><trkpt lat="40.14780692908314" lon="17.99832758506836"><ele>53.60000000000001</ele><time>2026-04-21T17:14:08.995Z</time></trkpt><trkpt lat="40.14775172335652" lon="17.99821176392987"><ele>53.4</ele><time>2026-04-21T17:14:09.995Z</time></trkpt><trkpt lat="40.14770504004492" lon="17.998086000232572"><ele>53.2</ele><time>2026-04-21T17:14:10.995Z</time></trkpt><trkpt lat="40.147656094226434" lon="17.99795438389995"><ele>53.0</ele><time>2026-04-21T17:14:11.995Z</time></trkpt><trkpt lat="40.14760067178469" lon="17.99783084480754"><ele>53.0</ele><time>2026-04-21T17:14:12.995Z</time></trkpt><trkpt lat="40.147552242660694" lon="17.99770245972997"><ele>53.0</ele><time>2026-04-21T17:14:13.995Z</time></trkpt><trkpt lat="40.147500320745756" lon="17.99757365539697"><ele>53.0</ele><time>2026-04-21T17:14:14.995Z</time></trkpt><trkpt lat="40.14745874478186" lon="17.997437685472242"><ele>53.0</ele><time>2026-04-21T17:14:15.996Z</time></trkpt><trkpt lat="40.14739732282556" lon="17.99730440089798"><ele>53.0</ele><time>2026-04-21T17:14:16.996Z</time></trkpt><trkpt lat="40.147343985604486" lon="17.997175965833755"><ele>53.0</ele><time>2026-04-21T17:14:17.996Z</time></trkpt><trkpt lat="40.14729527514159" lon="17.997051111717628"><ele>53.0</ele><time>2026-04-21T17:14:18.995Z</time></trkpt><trkpt lat="40.14725264522266" lon="17.996936243736005"><ele>53.0</ele><time>2026-04-21T17:14:19.996Z</time></trkpt><trkpt lat="40.14721091543181" lon="17.99683354395916"><ele>53.0</ele><time>2026-04-21T17:14:20.996Z</time></trkpt><trkpt lat="40.14718869550055" lon="17.99670371793311"><ele>53.00000000000001</ele><time>2026-04-21T17:14:21.996Z</time></trkpt><trkpt lat="40.14714443141784" lon="17.996591010999953"><ele>53.0</ele><time>2026-04-21T17:14:22.996Z</time></trkpt><trkpt lat="40.147124598821975" lon="17.996480884405294"><ele>53.0</ele><time>2026-04-21T17:14:23.996Z</time></trkpt><trkpt lat="40.14710077711886" lon="17.99638463953916"><ele>53.0</ele><time>2026-04-21T17:14:24.995Z</time></trkpt><trkpt lat="40.14707549799342" lon="17.99629115466205"><ele>53.00000000000001</ele><time>2026-04-21T17:14:25.996Z</time></trkpt><trkpt lat="40.14705351810678" lon="17.996195668842198"><ele>53.0</ele><time>2026-04-21T17:14:26.996Z</time></trkpt><trkpt lat="40.147043902349395" lon="17.996088821840598"><ele>53.00000000000001</ele><time>2026-04-21T17:14:27.995Z</time></trkpt><trkpt lat="40.14702143154043" lon="17.995987358147005"><ele>53.0</ele><time>2026-04-21T17:14:28.996Z</time></trkpt><trkpt lat="40.14699697940223" lon="17.995889371645863"><ele>53.0</ele><time>2026-04-21T17:14:29.996Z</time></trkpt><trkpt lat="40.14695841246506" lon="17.995785149138733"><ele>53.0</ele><time>2026-04-21T17:14:30.996Z</time></trkpt><trkpt lat="40.14694243795956" lon="17.995665941615357"><ele>53.00000000000001</ele><time>2026-04-21T17:14:31.996Z</time></trkpt><trkpt lat="40.146912063991174" lon="17.995541447411544"><ele>53.0</ele><time>2026-04-21T17:14:32.996Z</time></trkpt><trkpt lat="40.14687792112392" lon="17.99540141762501"><ele>53.2</ele><time>2026-04-21T17:14:33.996Z</time></trkpt><trkpt lat="40.146836559254375" lon="17.99528139834061"><ele>53.4</ele><time>2026-04-21T17:14:34.996Z</time></trkpt><trkpt lat="40.146807766644514" lon="17.995160696553285"><ele>53.60000000000001</ele><time>2026-04-21T17:14:35.996Z</time></trkpt><trkpt lat="40.146776236610805" lon="17.995049115135178"><ele>53.800000000000004</ele><time>2026-04-21T17:14:36.996Z</time></trkpt><trkpt lat="40.146764518237255" lon="17.99493366944738"><ele>54.0</ele><time>2026-04-21T17:14:37.996Z</time></trkpt><trkpt lat="40.14673967608523" lon="17.994821360800017"><ele>53.6</ele><time>2026-04-21T17:14:38.996Z</time></trkpt><trkpt lat="40.146710476744886" lon="17.99471415357658"><ele>53.2</ele><time>2026-04-21T17:14:39.996Z</time></trkpt><trkpt lat="40.1467139182495" lon="17.994588052947464"><ele>52.800000000000004</ele><time>2026-04-21T17:14:40.996Z</time></trkpt><trkpt lat="40.14672794166436" lon="17.99445867918412"><ele>52.400000000000006</ele><time>2026-04-21T17:14:41.996Z</time></trkpt><trkpt lat="40.146753325334295" lon="17.994325098441347"><ele>52.0</ele><time>2026-04-21T17:14:42.996Z</time></trkpt><trkpt lat="40.146790135635484" lon="17.99420502468415"><ele>51.8</ele><time>2026-04-21T17:14:43.996Z</time></trkpt><trkpt lat="40.146830111097884" lon="17.9940696116434"><ele>51.6</ele><time>2026-04-21T17:14:44.996Z</time></trkpt><trkpt lat="40.14685609873807" lon="17.993942382534243"><ele>51.4</ele><time>2026-04-21T17:14:45.996Z</time></trkpt><trkpt lat="40.1468854586502" lon="17.993809845287014"><ele>51.199999999999996</ele><time>2026-04-21T17:14:46.996Z</time></trkpt><trkpt lat="40.1469180936754" lon="17.993673114084455"><ele>51.0</ele><time>2026-04-21T17:14:47.996Z</time></trkpt><trkpt lat="40.1469540992878" lon="17.993542044622004"><ele>51.0</ele><time>2026-04-21T17:14:48.996Z</time></trkpt><trkpt lat="40.14698576310845" lon="17.99342348437047"><ele>51.0</ele><time>2026-04-21T17:14:49.996Z</time></trkpt><trkpt lat="40.147012476554394" lon="17.993313041206523"><ele>51.0</ele><time>2026-04-21T17:14:50.996Z</time></trkpt><trkpt lat="40.14704432015519" lon="17.993203417434593"><ele>51.0</ele><time>2026-04-21T17:14:51.996Z</time></trkpt><trkpt lat="40.14707609262063" lon="17.99309486400947"><ele>51.0</ele><time>2026-04-21T17:14:52.996Z</time></trkpt><trkpt lat="40.1470877649023" lon="17.99298539136921"><ele>51.0</ele><time>2026-04-21T17:14:53.996Z</time></trkpt><trkpt lat="40.147098004646985" lon="17.992881208266702"><ele>51.199999999999996</ele><time>2026-04-21T17:14:54.996Z</time></trkpt><trkpt lat="40.14709738875741" lon="17.992773403699797"><ele>51.4</ele><time>2026-04-21T17:14:55.996Z</time></trkpt><trkpt lat="40.14707436791723" lon="17.99265702746354"><ele>51.6</ele><time>2026-04-21T17:14:56.996Z</time></trkpt><trkpt lat="40.14704205563907" lon="17.992522781631568"><ele>51.8</ele><time>2026-04-21T17:14:57.996Z</time></trkpt><trkpt lat="40.14701985018593" lon="17.992391050628438"><ele>52.0</ele><time>2026-04-21T17:14:58.996Z</time></trkpt><trkpt lat="40.146987890668676" lon="17.992266420587775"><ele>52.0</ele><time>2026-04-21T17:14:59.996Z</time></trkpt><trkpt lat="40.14695700778934" lon="17.992131065741876"><ele>52.0</ele><time>2026-04-21T17:15:00.996Z</time></trkpt><trkpt lat="40.146933654424416" lon="17.99199255851124"><ele>52.0</ele><time>2026-04-21T17:15:01.996Z</time></trkpt><trkpt lat="40.14690353791075" lon="17.991850284712395"><ele>52.0</ele><time>2026-04-21T17:15:02.996Z</time></trkpt><trkpt lat="40.146869926168016" lon="17.991707295498113"><ele>52.0</ele><time>2026-04-21T17:15:03.996Z</time></trkpt><trkpt lat="40.14683747425098" lon="17.991569165149336"><ele>52.0</ele><time>2026-04-21T17:15:04.996Z</time></trkpt><trkpt lat="40.14681138391378" lon="17.991423735503048"><ele>52.0</ele><time>2026-04-21T17:15:05.996Z</time></trkpt><trkpt lat="40.14678351509491" lon="17.99127740653028"><ele>52.0</ele><time>2026-04-21T17:15:06.996Z</time></trkpt><trkpt lat="40.146757163949744" lon="17.99113182323638"><ele>52.0</ele><time>2026-04-21T17:15:07.996Z</time></trkpt><trkpt lat="40.14672940059744" lon="17.99097713592432"><ele>52.25</ele><time>2026-04-21T17:15:08.996Z</time></trkpt><trkpt lat="40.146696474722056" lon="17.990825904624085"><ele>52.5</ele><time>2026-04-21T17:15:09.996Z</time></trkpt><trkpt lat="40.14666116921047" lon="17.990665697180223"><ele>52.75</ele><time>2026-04-21T17:15:10.996Z</time></trkpt><trkpt lat="40.14662706806701" lon="17.99050599634862"><ele>53.0</ele><time>2026-04-21T17:15:11.996Z</time></trkpt><trkpt lat="40.146590733316984" lon="17.990347792828977"><ele>53.0</ele><time>2026-04-21T17:15:12.996Z</time></trkpt><trkpt lat="40.14655204309385" lon="17.99019069203306"><ele>53.0</ele><time>2026-04-21T17:15:13.996Z</time></trkpt><trkpt lat="40.146527852227564" lon="17.990038117296162"><ele>53.0</ele><time>2026-04-21T17:15:14.996Z</time></trkpt><trkpt lat="40.14650130774333" lon="17.98989299570409"><ele>53.0</ele><time>2026-04-21T17:15:15.996Z</time></trkpt><trkpt lat="40.14646736930881" lon="17.989743705798386"><ele>51.8</ele><time>2026-04-21T17:15:16.996Z</time></trkpt><trkpt lat="40.14643412657532" lon="17.98959940583354"><ele>50.599999999999994</ele><time>2026-04-21T17:15:17.996Z</time></trkpt><trkpt lat="40.14640453373858" lon="17.98945961711207"><ele>49.400000000000006</ele><time>2026-04-21T17:15:18.996Z</time></trkpt><trkpt lat="40.146372912906955" lon="17.989333340887118"><ele>48.2</ele><time>2026-04-21T17:15:19.995Z</time></trkpt><trkpt lat="40.14634067598979" lon="17.989209730581905"><ele>47.0</ele><time>2026-04-21T17:15:20.995Z</time></trkpt><trkpt lat="40.14629586840787" lon="17.989093261726833"><ele>46.8</ele><time>2026-04-21T17:15:21.995Z</time></trkpt><trkpt lat="40.14624777911869" lon="17.98897555955806"><ele>46.6</ele><time>2026-04-21T17:15:22.995Z</time></trkpt><trkpt lat="40.14618674260313" lon="17.988877816530827"><ele>46.4</ele><time>2026-04-21T17:15:23.995Z</time></trkpt><trkpt lat="40.14611811513072" lon="17.988780148990486"><ele>46.199999999999996</ele><time>2026-04-21T17:15:24.995Z</time></trkpt><trkpt lat="40.14605713183575" lon="17.98870130910039"><ele>46.0</ele><time>2026-04-21T17:15:25.995Z</time></trkpt><trkpt lat="40.1459914413172" lon="17.988617370387388"><ele>46.0</ele><time>2026-04-21T17:15:26.995Z</time></trkpt><trkpt lat="40.14592527089796" lon="17.988537591388233"><ele>46.0</ele><time>2026-04-21T17:15:27.995Z</time></trkpt><trkpt lat="40.14586159575282" lon="17.98845054662896"><ele>46.0</ele><time>2026-04-21T17:15:28.995Z</time></trkpt><trkpt lat="40.14580051186432" lon="17.988364464736343"><ele>46.0</ele><time>2026-04-21T17:15:29.995Z</time></trkpt><trkpt lat="40.1457336838843" lon="17.988275916280735"><ele>46.0</ele><time>2026-04-21T17:15:30.995Z</time></trkpt><trkpt lat="40.14566494581662" lon="17.98819202821447"><ele>44.599999999999994</ele><time>2026-04-21T17:15:31.995Z</time></trkpt><trkpt lat="40.14560272227324" lon="17.988117880281713"><ele>43.199999999999996</ele><time>2026-04-21T17:15:32.995Z</time></trkpt><trkpt lat="40.145535175393" lon="17.988033951125647"><ele>41.8</ele><time>2026-04-21T17:15:33.995Z</time></trkpt><trkpt lat="40.14546504794336" lon="17.98795149887044"><ele>40.4</ele><time>2026-04-21T17:15:34.995Z</time></trkpt><trkpt lat="40.14540353049329" lon="17.987868587290603"><ele>39.0</ele><time>2026-04-21T17:15:35.995Z</time></trkpt><trkpt lat="40.14533422400941" lon="17.987786278493214"><ele>39.0</ele><time>2026-04-21T17:15:36.995Z</time></trkpt><trkpt lat="40.145270346918586" lon="17.98770843292441"><ele>39.0</ele><time>2026-04-21T17:15:37.995Z</time></trkpt><trkpt lat="40.145229081176524" lon="17.987614755806337"><ele>39.0</ele><time>2026-04-21T17:15:38.995Z</time></trkpt><trkpt lat="40.1451734238244" lon="17.987540178719946"><ele>39.0</ele><time>2026-04-21T17:15:39.995Z</time></trkpt><trkpt lat="40.14511665814119" lon="17.987475119326863"><ele>39.0</ele><time>2026-04-21T17:15:40.995Z</time></trkpt><trkpt lat="40.14505881646044" lon="17.98739933794711"><ele>39.0</ele><time>2026-04-21T17:15:41.995Z</time></trkpt><trkpt lat="40.145001830310115" lon="17.98733229384374"><ele>38.833333333333336</ele><time>2026-04-21T17:15:42.995Z</time></trkpt><trkpt lat="40.144946518956196" lon="17.987260268263743"><ele>38.666666666666664</ele><time>2026-04-21T17:15:43.995Z</time></trkpt><trkpt lat="40.14488920914679" lon="17.987189912419204"><ele>38.5</ele><time>2026-04-21T17:15:44.995Z</time></trkpt><trkpt lat="40.14482426050835" lon="17.987120958492113"><ele>38.33333333333333</ele><time>2026-04-21T17:15:45.995Z</time></trkpt><trkpt lat="40.144755796128216" lon="17.9870517017154"><ele>38.166666666666664</ele><time>2026-04-21T17:15:46.995Z</time></trkpt><trkpt lat="40.14469497015948" lon="17.986986307268953"><ele>38.0</ele><time>2026-04-21T17:15:47.995Z</time></trkpt><trkpt lat="40.144637681924934" lon="17.986925218981"><ele>38.0</ele><time>2026-04-21T17:15:48.995Z</time></trkpt><trkpt lat="40.144579489320705" lon="17.986864413557495"><ele>38.0</ele><time>2026-04-21T17:15:49.995Z</time></trkpt><trkpt lat="40.144517328498196" lon="17.98680577986419"><ele>38.0</ele><time>2026-04-21T17:15:50.995Z</time></trkpt><trkpt lat="40.144448970006884" lon="17.986744292544603"><ele>38.0</ele><time>2026-04-21T17:15:51.995Z</time></trkpt><trkpt lat="40.14438558610894" lon="17.98668417029049"><ele>38.0</ele><time>2026-04-21T17:15:52.995Z</time></trkpt><trkpt lat="40.144314073851994" lon="17.986632739656905"><ele>38.0</ele><time>2026-04-21T17:15:53.995Z</time></trkpt><trkpt lat="40.14423978339248" lon="17.98658056661341"><ele>37.33333333333333</ele><time>2026-04-21T17:15:54.995Z</time></trkpt><trkpt lat="40.14416649562345" lon="17.98652885463118"><ele>36.666666666666664</ele><time>2026-04-21T17:15:55.995Z</time></trkpt><trkpt lat="40.144088496221286" lon="17.986477520182103"><ele>36.0</ele><time>2026-04-21T17:15:56.995Z</time></trkpt><trkpt lat="40.14401556349229" lon="17.986423887130886"><ele>35.333333333333336</ele><time>2026-04-21T17:15:57.995Z</time></trkpt><trkpt lat="40.14394600538919" lon="17.986365415738668"><ele>34.66666666666667</ele><time>2026-04-21T17:15:58.995Z</time></trkpt><trkpt lat="40.14388431988" lon="17.986297743424117"><ele>34.0</ele><time>2026-04-21T17:15:59.995Z</time></trkpt><trkpt lat="40.14382911553193" lon="17.9862145752423"><ele>34.0</ele><time>2026-04-21T17:16:00.995Z</time></trkpt><trkpt lat="40.14378375735511" lon="17.986118917379763"><ele>34.0</ele><time>2026-04-21T17:16:01.995Z</time></trkpt><trkpt lat="40.14375293844158" lon="17.98601252652296"><ele>34.0</ele><time>2026-04-21T17:16:02.995Z</time></trkpt><trkpt lat="40.14374012188807" lon="17.985895477099042"><ele>34.0</ele><time>2026-04-21T17:16:03.995Z</time></trkpt><trkpt lat="40.14373194463131" lon="17.985788675699013"><ele>34.0</ele><time>2026-04-21T17:16:04.995Z</time></trkpt><trkpt lat="40.14374018347602" lon="17.9856817194309"><ele>34.0</ele><time>2026-04-21T17:16:05.995Z</time></trkpt><trkpt lat="40.14375412117948" lon="17.98557709097236"><ele>34.66666666666667</ele><time>2026-04-21T17:16:06.995Z</time></trkpt><trkpt lat="40.14376186229614" lon="17.985473169221116"><ele>35.333333333333336</ele><time>2026-04-21T17:16:07.995Z</time></trkpt><trkpt lat="40.14376903330573" lon="17.985376597640823"><ele>36.0</ele><time>2026-04-21T17:16:08.995Z</time></trkpt><trkpt lat="40.1437840092665" lon="17.985275458721663"><ele>36.666666666666664</ele><time>2026-04-21T17:16:09.995Z</time></trkpt><trkpt lat="40.143800615094804" lon="17.98517040237475"><ele>37.33333333333333</ele><time>2026-04-21T17:16:10.995Z</time></trkpt><trkpt lat="40.14382941676808" lon="17.98506961731989"><ele>38.0</ele><time>2026-04-21T17:16:11.995Z</time></trkpt><trkpt lat="40.14385329372552" lon="17.984979686335404"><ele>38.166666666666664</ele><time>2026-04-21T17:16:12.995Z</time></trkpt><trkpt lat="40.143867292768746" lon="17.98488375792376"><ele>38.33333333333333</ele><time>2026-04-21T17:16:13.995Z</time></trkpt><trkpt lat="40.1439000249005" lon="17.984800671227056"><ele>38.5</ele><time>2026-04-21T17:16:14.995Z</time></trkpt><trkpt lat="40.14393697105702" lon="17.984715690790264"><ele>38.666666666666664</ele><time>2026-04-21T17:16:15.995Z</time></trkpt><trkpt lat="40.143956007152966" lon="17.984615258419623"><ele>38.833333333333336</ele><time>2026-04-21T17:16:16.995Z</time></trkpt><trkpt lat="40.143967531097715" lon="17.984508217807427"><ele>39.0</ele><time>2026-04-21T17:16:17.995Z</time></trkpt><trkpt lat="40.143967222345815" lon="17.984399925049306"><ele>39.0</ele><time>2026-04-21T17:16:18.995Z</time></trkpt><trkpt lat="40.14395353991075" lon="17.984306328796325"><ele>39.0</ele><time>2026-04-21T17:16:19.995Z</time></trkpt><trkpt lat="40.143920106165076" lon="17.98420968445968"><ele>39.0</ele><time>2026-04-21T17:16:20.995Z</time></trkpt><trkpt lat="40.14387764846217" lon="17.984114080730844"><ele>39.0</ele><time>2026-04-21T17:16:21.995Z</time></trkpt><trkpt lat="40.14383496060234" lon="17.98403158826429"><ele>39.0</ele><time>2026-04-21T17:16:22.996Z</time></trkpt><trkpt lat="40.143778230080365" lon="17.983965771883472"><ele>39.0</ele><time>2026-04-21T17:16:23.996Z</time></trkpt><trkpt lat="40.14370492293236" lon="17.983924637100902"><ele>39.5</ele><time>2026-04-21T17:16:24.995Z</time></trkpt><trkpt lat="40.14363518415668" lon="17.983878372459486"><ele>40.0</ele><time>2026-04-21T17:16:25.995Z</time></trkpt><trkpt lat="40.143554715962146" lon="17.983840659181876"><ele>40.5</ele><time>2026-04-21T17:16:26.995Z</time></trkpt><trkpt lat="40.14348484774077" lon="17.983811882277905"><ele>41.0</ele><time>2026-04-21T17:16:27.996Z</time></trkpt><trkpt lat="40.14340351040268" lon="17.983786771524425"><ele>41.5</ele><time>2026-04-21T17:16:28.996Z</time></trkpt><trkpt lat="40.14333067711676" lon="17.98376455375919"><ele>42.0</ele><time>2026-04-21T17:16:29.995Z</time></trkpt><trkpt lat="40.14325612024019" lon="17.983739588300324"><ele>40.666666666666664</ele><time>2026-04-21T17:16:30.994Z</time></trkpt><trkpt lat="40.143180267358844" lon="17.983720389932543"><ele>39.333333333333336</ele><time>2026-04-21T17:16:31.995Z</time></trkpt><trkpt lat="40.14310989703302" lon="17.983693744363997"><ele>38.0</ele><time>2026-04-21T17:16:32.995Z</time></trkpt><trkpt lat="40.14303709411338" lon="17.983676054018108"><ele>36.66666666666667</ele><time>2026-04-21T17:16:33.995Z</time></trkpt><trkpt lat="40.14296351520814" lon="17.983650555027758"><ele>35.333333333333336</ele><time>2026-04-21T17:16:34.994Z</time></trkpt><trkpt lat="40.14289103472275" lon="17.983623632364427"><ele>34.0</ele><time>2026-04-21T17:16:35.994Z</time></trkpt><trkpt lat="40.14281887262702" lon="17.983597611201823"><ele>34.0</ele><time>2026-04-21T17:16:36.994Z</time></trkpt><trkpt lat="40.14274255861919" lon="17.983578490859284"><ele>34.0</ele><time>2026-04-21T17:16:37.994Z</time></trkpt><trkpt lat="40.14266934252502" lon="17.98355567388304"><ele>34.0</ele><time>2026-04-21T17:16:38.994Z</time></trkpt><trkpt lat="40.14259675877645" lon="17.98353845235472"><ele>34.0</ele><time>2026-04-21T17:16:39.994Z</time></trkpt><trkpt lat="40.14252305547179" lon="17.98351083782882"><ele>34.0</ele><time>2026-04-21T17:16:40.994Z</time></trkpt><trkpt lat="40.14244539363368" lon="17.983471421511066"><ele>34.0</ele><time>2026-04-21T17:16:41.994Z</time></trkpt><trkpt lat="40.14236720058837" lon="17.983436379357897"><ele>32.8</ele><time>2026-04-21T17:16:42.994Z</time></trkpt><trkpt lat="40.14228576236319" lon="17.983383450466224"><ele>31.599999999999998</ele><time>2026-04-21T17:16:43.994Z</time></trkpt><trkpt lat="40.14220427372501" lon="17.9833308094484"><ele>30.4</ele><time>2026-04-21T17:16:44.994Z</time></trkpt><trkpt lat="40.14212364176624" lon="17.983262402701097"><ele>29.2</ele><time>2026-04-21T17:16:45.994Z</time></trkpt><trkpt lat="40.14203920381708" lon="17.983184626960384"><ele>28.0</ele><time>2026-04-21T17:16:46.994Z</time></trkpt><trkpt lat="40.14196032198903" lon="17.983102492836792"><ele>28.0</ele><time>2026-04-21T17:16:47.994Z</time></trkpt><trkpt lat="40.14189632473028" lon="17.983010242146072"><ele>27.999999999999996</ele><time>2026-04-21T17:16:48.994Z</time></trkpt><trkpt lat="40.14183322425595" lon="17.982915144433026"><ele>27.999999999999996</ele><time>2026-04-21T17:16:49.994Z</time></trkpt><trkpt lat="40.1417728767213" lon="17.982815229568335"><ele>28.0</ele><time>2026-04-21T17:16:50.994Z</time></trkpt><trkpt lat="40.14170530062239" lon="17.9827240518986"><ele>28.0</ele><time>2026-04-21T17:16:51.994Z</time></trkpt><trkpt lat="40.14165357882878" lon="17.982623773681265"><ele>28.0</ele><time>2026-04-21T17:16:52.994Z</time></trkpt><trkpt lat="40.14160854296269" lon="17.982517327866837"><ele>27.999999999999996</ele><time>2026-04-21T17:16:53.994Z</time></trkpt><trkpt lat="40.14157908195782" lon="17.98240041947416"><ele>27.999999999999996</ele><time>2026-04-21T17:16:54.994Z</time></trkpt><trkpt lat="40.141541122076916" lon="17.982288412669597"><ele>28.0</ele><time>2026-04-21T17:16:55.994Z</time></trkpt><trkpt lat="40.14148994209423" lon="17.982171513572293"><ele>28.0</ele><time>2026-04-21T17:16:56.994Z</time></trkpt><trkpt lat="40.14146212460073" lon="17.982066832768453"><ele>26.0</ele><time>2026-04-21T17:16:57.994Z</time></trkpt><trkpt lat="40.141434851587356" lon="17.98194741687821"><ele>23.999999999999996</ele><time>2026-04-21T17:16:58.994Z</time></trkpt><trkpt lat="40.141416287286795" lon="17.981834881684577"><ele>22.0</ele><time>2026-04-21T17:16:59.994Z</time></trkpt><trkpt lat="40.141396272106405" lon="17.98171545585564"><ele>20.0</ele><time>2026-04-21T17:17:00.994Z</time></trkpt><trkpt lat="40.14137394961936" lon="17.98160180801781"><ele>18.0</ele><time>2026-04-21T17:17:01.994Z</time></trkpt><trkpt lat="40.14134707666416" lon="17.981490488108452"><ele>18.0</ele><time>2026-04-21T17:17:02.994Z</time></trkpt><trkpt lat="40.14132410973846" lon="17.98137146852236"><ele>18.0</ele><time>2026-04-21T17:17:03.994Z</time></trkpt><trkpt lat="40.14129991128919" lon="17.9812641762305"><ele>18.0</ele><time>2026-04-21T17:17:04.994Z</time></trkpt><trkpt lat="40.14128086778129" lon="17.981170370816535"><ele>18.0</ele><time>2026-04-21T17:17:05.994Z</time></trkpt><trkpt lat="40.14124975873595" lon="17.981031165546334"><ele>18.0</ele><time>2026-04-21T17:17:07.994Z</time></trkpt><trkpt lat="40.14123445561567" lon="17.98090871234741"><ele>17.0</ele><time>2026-04-21T17:17:09.994Z</time></trkpt><trkpt lat="40.14119678993686" lon="17.980812918345755"><ele>16.0</ele><time>2026-04-21T17:17:12.994Z</time></trkpt><trkpt lat="40.14116859055268" lon="17.980730601867887"><ele>15.0</ele><time>2026-04-21T17:17:15.994Z</time></trkpt><trkpt lat="40.14105854213806" lon="17.980757167974062"><ele>14.0</ele><time>2026-04-21T17:17:16.994Z</time></trkpt><trkpt lat="40.140948495964075" lon="17.980769307500225"><ele>13.0</ele><time>2026-04-21T17:17:18.994Z</time></trkpt><trkpt lat="40.14085539398395" lon="17.980796553824362"><ele>12.999999999999998</ele><time>2026-04-21T17:17:20.994Z</time></trkpt><trkpt lat="40.14074755566826" lon="17.98082124220575"><ele>13.0</ele><time>2026-04-21T17:17:22.994Z</time></trkpt><trkpt lat="40.14067929205053" lon="17.98083633420154"><ele>13.0</ele><time>2026-04-21T17:17:23.993Z</time></trkpt><trkpt lat="40.14061371213637" lon="17.98085229680552"><ele>13.0</ele><time>2026-04-21T17:17:24.993Z</time></trkpt><trkpt lat="40.14054636885584" lon="17.980866381641576"><ele>12.999999999999998</ele><time>2026-04-21T17:17:25.993Z</time></trkpt><trkpt lat="40.140442681264815" lon="17.980874349931863"><ele>13.0</ele><time>2026-04-21T17:17:27.993Z</time></trkpt><trkpt lat="40.14034961716434" lon="17.980879000204716"><ele>12.8</ele><time>2026-04-21T17:17:29.993Z</time></trkpt><trkpt lat="40.140247877165706" lon="17.980881625098444"><ele>12.600000000000001</ele><time>2026-04-21T17:17:31.993Z</time></trkpt><trkpt lat="40.14014149869024" lon="17.98087191173131"><ele>12.399999999999999</ele><time>2026-04-21T17:17:33.993Z</time></trkpt><trkpt lat="40.140029974143644" lon="17.98085113019244"><ele>12.2</ele><time>2026-04-21T17:17:35.993Z</time></trkpt><trkpt lat="40.13990773879869" lon="17.980821816290913"><ele>12.0</ele><time>2026-04-21T17:17:37.993Z</time></trkpt><trkpt lat="40.13984387678001" lon="17.980807326300962"><ele>10.833333333333334</ele><time>2026-04-21T17:17:38.993Z</time></trkpt><trkpt lat="40.13977919725964" lon="17.98079375427779"><ele>9.666666666666666</ele><time>2026-04-21T17:17:39.993Z</time></trkpt><trkpt lat="40.139716360428004" lon="17.980781807415884"><ele>8.5</ele><time>2026-04-21T17:17:40.993Z</time></trkpt><trkpt lat="40.13959193635235" lon="17.98075653228831"><ele>7.333333333333334</ele><time>2026-04-21T17:17:42.993Z</time></trkpt><trkpt lat="40.1395260869565" lon="17.980745155867037"><ele>6.166666666666667</ele><time>2026-04-21T17:17:43.993Z</time></trkpt><trkpt lat="40.139461925876134" lon="17.98073359942969"><ele>5.0</ele><time>2026-04-21T17:17:44.993Z</time></trkpt><trkpt lat="40.13939892258078" lon="17.980711722580445"><ele>5.0</ele><time>2026-04-21T17:17:45.993Z</time></trkpt><trkpt lat="40.13928964102686" lon="17.9806952244672"><ele>5.0</ele><time>2026-04-21T17:17:47.993Z</time></trkpt><trkpt lat="40.13918902642953" lon="17.98066944519638"><ele>5.0</ele><time>2026-04-21T17:17:49.993Z</time></trkpt><trkpt lat="40.13915753164557" lon="17.980547507802804"><ele>5.0</ele><time>2026-04-21T17:17:50.993Z</time></trkpt><trkpt lat="40.139018611581825" lon="17.98043856401151"><ele>-1.0</ele><time>2026-04-21T17:17:53.993Z</time></trkpt><trkpt lat="40.138920312479584" lon="17.98038248880289"><ele>-1.0</ele><time>2026-04-21T17:17:55.993Z</time></trkpt><trkpt lat="40.13883453289157" lon="17.980358709275936"><ele>-1.0</ele><time>2026-04-21T17:17:57.993Z</time></trkpt><trkpt lat="40.13877172491997" lon="17.98035025927624"><ele>-1.0</ele><time>2026-04-21T17:18:01.993Z</time></trkpt></trkseg></trk></gpx>